Time,TemperatureF,DewpointF,PressureIn,WindDirection,WindDirectionDegrees,WindSpeedMPH,WindSpeedGustMPH,Humidity,HourlyPrecipIn,Conditions,Clouds,dailyrainin,SoftwareType,DateUTC
2013-07-29 00:00:00,68.1,68.1,29.93,NNW,335,0.0,0.0,100,0.10,,---,0.67,VWS V14.01,2013-07-29 04:00:00,
2013-07-29 00:02:00,68.1,68.1,29.93,NNW,335,0.0,0.0,100,0.08,,---,0.01,VWS V14.01,2013-07-29 04:02:00,
2013-07-29 00:04:00,68.1,68.1,29.93,NNW,335,0.0,0.0,100,0.08,,---,0.01,VWS V14.01,2013-07-29 04:04:00,
2013-07-29 00:06:00,68.1,68.1,29.93,NNW,335,0.0,0.0,100,0.08,,---,0.01,VWS V14.01,2013-07-29 04:06:00,
2013-07-29 00:08:00,67.9,67.9,29.93,NNW,335,0.0,0.0,100,0.08,,---,0.01,VWS V14.01,2013-07-29 04:08:00,
2013-07-29 00:10:00,67.9,67.9,29.93,NNW,335,0.0,0.0,100,0.08,,---,0.01,VWS V14.01,2013-07-29 04:10:00,
2013-07-29 00:12:00,67.9,67.9,29.93,NNW,335,0.0,0.0,100,0.09,,---,0.02,VWS V14.01,2013-07-29 04:12:00,
2013-07-29 00:14:00,67.9,67.9,29.94,NNW,335,0.0,0.0,100,0.09,,---,0.02,VWS V14.01,2013-07-29 04:14:00,
2013-07-29 00:15:00,67.9,67.9,29.94,NNW,335,0.0,0.0,100,0.09,,---,0.02,VWS V14.01,2013-07-29 04:15:00,
2013-07-29 00:16:00,67.9,67.9,29.94,NNW,335,0.0,0.0,100,0.07,,---,0.02,VWS V14.01,2013-07-29 04:16:00,
2013-07-29 00:18:00,67.9,67.9,29.94,NNW,335,0.0,0.0,100,0.07,,---,0.02,VWS V14.01,2013-07-29 04:18:00,
2013-07-29 00:20:00,67.9,67.9,29.94,NNW,335,0.0,0.0,100,0.07,,---,0.02,VWS V14.01,2013-07-29 04:20:00,
2013-07-29 00:22:00,67.9,67.9,29.94,NNW,335,0.0,0.0,100,0.07,,---,0.02,VWS V14.01,2013-07-29 04:22:00,
2013-07-29 00:24:00,67.9,67.9,29.94,NNW,335,0.0,0.0,100,0.08,,---,0.03,VWS V14.01,2013-07-29 04:24:00,
2013-07-29 00:26:00,67.9,67.9,29.94,NNW,335,0.0,0.0,100,0.08,,---,0.03,VWS V14.01,2013-07-29 04:26:00,
2013-07-29 00:28:00,67.9,67.9,29.94,NNW,335,0.0,0.0,100,0.08,,---,0.03,VWS V14.01,2013-07-29 04:28:00,
2013-07-29 00:30:00,67.9,67.9,29.94,NNW,335,0.0,0.0,100,0.08,,---,0.03,VWS V14.01,2013-07-29 04:30:00,
2013-07-29 00:32:00,67.8,67.8,29.94,NNW,335,0.0,0.0,100,0.06,,---,0.03,VWS V14.01,2013-07-29 04:32:00,
2013-07-29 00:34:00,67.8,67.8,29.94,NNW,335,0.0,0.0,100,0.06,,---,0.03,VWS V14.01,2013-07-29 04:34:00,
2013-07-29 00:36:00,67.8,67.8,29.94,NNW,335,0.0,0.0,100,0.07,,---,0.04,VWS V14.01,2013-07-29 04:36:00,
2013-07-29 00:38:00,67.8,67.8,29.94,NNW,335,0.0,0.0,100,0.07,,---,0.04,VWS V14.01,2013-07-29 04:38:00,
2013-07-29 00:40:00,67.8,67.8,29.94,NNW,335,0.0,0.0,100,0.07,,---,0.04,VWS V14.01,2013-07-29 04:40:00,
2013-07-29 00:42:00,67.8,67.8,29.94,NNW,335,0.0,0.0,100,0.07,,---,0.04,VWS V14.01,2013-07-29 04:42:00,
2013-07-29 00:44:00,67.8,67.8,29.95,NNW,335,0.0,0.0,100,0.07,,---,0.04,VWS V14.01,2013-07-29 04:44:00,
2013-07-29 00:45:00,67.8,67.8,29.95,NNW,335,0.0,0.0,100,0.07,,---,0.04,VWS V14.01,2013-07-29 04:45:00,
2013-07-29 00:46:00,67.9,67.9,29.95,NNW,335,0.0,0.0,100,0.05,,---,0.04,VWS V14.01,2013-07-29 04:46:00,
2013-07-29 00:48:00,67.9,67.9,29.95,NNW,335,0.0,0.0,100,0.05,,---,0.04,VWS V14.01,2013-07-29 04:48:00,
2013-07-29 00:50:00,67.9,67.9,29.95,NNW,335,0.0,0.0,100,0.05,,---,0.04,VWS V14.01,2013-07-29 04:50:00,
2013-07-29 00:52:00,67.9,67.9,29.95,NNW,335,0.0,0.0,100,0.05,,---,0.04,VWS V14.01,2013-07-29 04:52:00,
2013-07-29 00:54:00,67.8,67.8,29.95,NNW,335,0.0,0.0,100,0.05,,---,0.04,VWS V14.01,2013-07-29 04:54:00,
2013-07-29 00:56:00,67.8,67.8,29.95,NNW,335,0.0,0.0,100,0.05,,---,0.04,VWS V14.01,2013-07-29 04:56:00,
2013-07-29 00:58:00,67.8,67.8,29.95,NNW,335,0.0,0.0,100,0.05,,---,0.04,VWS V14.01,2013-07-29 04:58:00,
2013-07-29 01:00:00,67.8,67.8,29.94,NNW,335,0.0,0.0,100,0.06,,---,0.05,VWS V14.01,2013-07-29 05:00:00,
2013-07-29 01:02:00,67.6,67.6,29.94,NNW,335,0.0,0.0,100,0.05,,---,0.05,VWS V14.01,2013-07-29 05:02:00,
2013-07-29 01:04:00,67.6,67.6,29.94,NNW,335,0.0,0.0,100,0.05,,---,0.05,VWS V14.01,2013-07-29 05:04:00,
2013-07-29 01:06:00,67.6,67.6,29.94,NNW,335,0.0,0.0,100,0.05,,---,0.05,VWS V14.01,2013-07-29 05:06:00,
2013-07-29 01:08:00,67.4,67.4,29.94,NNW,335,0.0,0.0,100,0.05,,---,0.05,VWS V14.01,2013-07-29 05:08:00,
2013-07-29 01:10:00,67.4,67.4,29.94,NNW,335,0.0,0.0,100,0.05,,---,0.05,VWS V14.01,2013-07-29 05:10:00,
2013-07-29 01:12:00,67.4,67.4,29.94,NNW,335,0.0,0.0,100,0.05,,---,0.05,VWS V14.01,2013-07-29 05:12:00,
2013-07-29 01:14:00,67.4,67.4,29.94,NNW,335,0.0,0.0,100,0.05,,---,0.05,VWS V14.01,2013-07-29 05:14:00,
2013-07-29 01:15:00,67.4,67.4,29.94,NNW,335,0.0,0.0,100,0.05,,---,0.05,VWS V14.01,2013-07-29 05:15:00,
2013-07-29 01:16:00,67.4,67.4,29.94,NNW,335,0.0,0.0,100,0.03,,---,0.05,VWS V14.01,2013-07-29 05:16:00,
2013-07-29 01:18:00,67.4,67.4,29.94,NNW,335,0.0,0.0,100,0.03,,---,0.05,VWS V14.01,2013-07-29 05:18:00,
2013-07-29 01:20:00,67.3,67.3,29.94,NNW,335,0.0,0.0,100,0.03,,---,0.05,VWS V14.01,2013-07-29 05:20:00,
2013-07-29 01:22:00,67.3,67.3,29.94,NNW,335,0.0,0.0,100,0.03,,---,0.05,VWS V14.01,2013-07-29 05:22:00,
2013-07-29 01:24:00,67.3,67.3,29.94,NNW,335,0.0,0.0,100,0.03,,---,0.05,VWS V14.01,2013-07-29 05:24:00,
2013-07-29 01:26:00,67.3,67.3,29.94,NNW,335,0.0,0.0,100,0.03,,---,0.05,VWS V14.01,2013-07-29 05:26:00,
2013-07-29 01:28:00,67.4,67.4,29.94,NNW,335,0.0,0.0,100,0.03,,---,0.05,VWS V14.01,2013-07-29 05:28:00,
2013-07-29 01:30:00,67.4,67.4,29.94,NNW,335,0.0,0.0,100,0.03,,---,0.05,VWS V14.01,2013-07-29 05:30:00,
2013-07-29 01:32:00,67.4,67.4,29.94,NNW,335,0.0,0.0,100,0.02,,---,0.05,VWS V14.01,2013-07-29 05:32:00,
2013-07-29 01:34:00,67.4,67.4,29.94,NNW,335,0.0,0.0,100,0.02,,---,0.05,VWS V14.01,2013-07-29 05:34:00,
2013-07-29 01:36:00,67.4,67.4,29.94,NNW,335,0.0,0.0,100,0.02,,---,0.05,VWS V14.01,2013-07-29 05:36:00,
2013-07-29 01:38:00,67.4,67.4,29.94,NNW,335,0.0,0.0,100,0.02,,---,0.05,VWS V14.01,2013-07-29 05:38:00,
2013-07-29 01:40:00,67.3,67.3,29.94,NNW,335,0.0,0.0,100,0.02,,---,0.05,VWS V14.01,2013-07-29 05:40:00,
2013-07-29 01:42:00,67.3,67.3,29.94,NNW,335,0.0,0.0,100,0.02,,---,0.05,VWS V14.01,2013-07-29 05:42:00,
2013-07-29 01:44:00,67.3,67.3,29.95,NNW,335,0.0,0.0,100,0.02,,---,0.05,VWS V14.01,2013-07-29 05:44:00,
2013-07-29 01:45:00,67.3,67.3,29.95,NNW,335,0.0,0.0,100,0.02,,---,0.05,VWS V14.01,2013-07-29 05:45:00,
2013-07-29 01:46:00,67.3,67.3,29.95,NNW,335,0.0,0.0,100,0.01,,---,0.05,VWS V14.01,2013-07-29 05:46:00,
2013-07-29 01:48:00,67.3,67.3,29.95,NNW,335,0.0,0.0,100,0.01,,---,0.05,VWS V14.01,2013-07-29 05:48:00,
2013-07-29 01:50:00,67.3,67.3,29.95,NNW,335,0.0,0.0,100,0.01,,---,0.05,VWS V14.01,2013-07-29 05:50:00,
2013-07-29 01:52:00,67.3,67.3,29.95,NNW,335,0.0,0.0,100,0.01,,---,0.05,VWS V14.01,2013-07-29 05:52:00,
2013-07-29 01:54:00,67.3,67.3,29.95,NNW,335,0.0,0.0,100,0.01,,---,0.05,VWS V14.01,2013-07-29 05:54:00,
2013-07-29 01:56:00,67.3,67.3,29.95,NNW,335,0.0,0.0,100,0.01,,---,0.05,VWS V14.01,2013-07-29 05:56:00,
2013-07-29 01:58:00,67.1,67.1,29.95,NNW,335,0.0,0.0,100,0.01,,---,0.05,VWS V14.01,2013-07-29 05:58:00,
2013-07-29 02:00:00,67.1,67.1,29.95,NNW,335,0.0,0.0,100,0.01,,---,0.05,VWS V14.01,2013-07-29 06:00:00,
2013-07-29 02:02:00,67.1,67.1,29.95,NNW,335,0.0,0.0,100,0.00,,---,0.05,VWS V14.01,2013-07-29 06:02:00,
2013-07-29 02:04:00,67.1,67.1,29.95,NNW,335,0.0,0.0,100,0.00,,---,0.05,VWS V14.01,2013-07-29 06:04:00,
2013-07-29 02:06:00,67.1,67.1,29.95,NNW,335,0.0,0.0,100,0.00,,---,0.05,VWS V14.01,2013-07-29 06:06:00,
2013-07-29 02:08:00,67.3,67.3,29.95,NNW,335,0.0,0.0,100,0.00,,---,0.05,VWS V14.01,2013-07-29 06:08:00,
2013-07-29 02:10:00,67.3,67.3,29.95,NNW,335,0.0,0.0,100,0.00,,---,0.05,VWS V14.01,2013-07-29 06:10:00,
2013-07-29 02:12:00,67.3,67.3,29.95,NNW,335,0.0,0.0,100,0.00,,---,0.05,VWS V14.01,2013-07-29 06:12:00,
2013-07-29 02:14:00,67.3,67.3,29.95,NNW,335,0.0,0.0,100,0.00,,---,0.05,VWS V14.01,2013-07-29 06:14:00,
2013-07-29 02:15:00,67.3,67.3,29.95,NNW,335,0.0,0.0,100,0.00,,---,0.05,VWS V14.01,2013-07-29 06:15:00,
2013-07-29 02:16:00,67.3,67.3,29.95,NNW,335,0.0,0.0,100,0.00,,---,0.05,VWS V14.01,2013-07-29 06:16:00,
2013-07-29 02:18:00,67.3,67.3,29.95,NNW,335,0.0,0.0,100,0.00,,---,0.05,VWS V14.01,2013-07-29 06:18:00,
2013-07-29 02:20:00,67.3,67.3,29.95,NNW,335,0.0,0.0,100,0.00,,---,0.05,VWS V14.01,2013-07-29 06:20:00,
2013-07-29 02:24:00,67.3,67.3,29.95,NNW,335,0.0,0.0,100,0.00,,---,0.05,VWS V14.01,2013-07-29 06:24:00,
2013-07-29 02:28:00,67.3,67.3,29.95,NNW,335,0.0,0.0,100,0.00,,---,0.05,VWS V14.01,2013-07-29 06:28:00,
2013-07-29 02:30:00,67.3,67.3,29.95,NNW,335,0.0,0.0,100,0.00,,---,0.05,VWS V14.01,2013-07-29 06:30:00,
2013-07-29 02:32:00,67.3,67.3,29.95,NNW,335,0.0,0.0,100,0.00,,---,0.05,VWS V14.01,2013-07-29 06:32:00,
2013-07-29 02:34:00,67.3,67.3,29.95,NNW,335,0.0,0.0,100,0.00,,---,0.05,VWS V14.01,2013-07-29 06:34:00,
2013-07-29 02:36:00,67.3,67.3,29.95,NNW,335,0.0,0.0,100,0.00,,---,0.05,VWS V14.01,2013-07-29 06:36:00,
2013-07-29 02:38:00,67.3,67.3,29.95,NNW,335,0.0,0.0,100,0.00,,---,0.05,VWS V14.01,2013-07-29 06:38:00,
2013-07-29 02:39:00,67.3,67.3,29.95,NNW,335,0.0,0.0,100,0.00,,---,0.05,VWS V14.01,2013-07-29 06:39:00,
2013-07-29 02:40:00,67.3,67.3,29.95,NNW,335,0.0,0.0,100,0.00,,---,0.05,VWS V14.01,2013-07-29 06:40:00,
2013-07-29 02:42:00,67.3,67.3,29.95,NNW,335,0.0,0.0,100,0.00,,---,0.05,VWS V14.01,2013-07-29 06:42:00,
2013-07-29 02:44:00,67.1,67.1,29.94,NNW,335,0.0,0.0,100,0.00,,---,0.05,VWS V14.01,2013-07-29 06:44:00,
2013-07-29 02:45:00,67.1,67.1,29.94,NNW,335,0.0,0.0,100,0.00,,---,0.05,VWS V14.01,2013-07-29 06:45:00,
2013-07-29 02:46:00,67.1,67.1,29.94,NNW,335,0.0,0.0,100,0.00,,---,0.05,VWS V14.01,2013-07-29 06:46:00,
2013-07-29 02:48:00,67.1,67.1,29.94,NNW,335,0.0,0.0,100,0.00,,---,0.05,VWS V14.01,2013-07-29 06:48:00,
2013-07-29 02:50:00,67.1,67.1,29.94,NNW,335,0.0,0.0,100,0.00,,---,0.05,VWS V14.01,2013-07-29 06:50:00,
2013-07-29 02:52:00,67.1,67.1,29.94,NNW,335,0.0,0.0,100,0.00,,---,0.05,VWS V14.01,2013-07-29 06:52:00,
2013-07-29 02:54:00,67.1,67.1,29.94,NNW,335,0.0,0.0,100,0.00,,---,0.05,VWS V14.01,2013-07-29 06:54:00,
2013-07-29 02:57:00,67.1,67.1,29.94,NNW,335,0.0,0.0,100,0.00,,---,0.05,VWS V14.01,2013-07-29 06:57:00,
2013-07-29 02:59:00,67.1,67.1,29.94,NNW,335,0.0,0.0,100,0.00,,---,0.05,VWS V14.01,2013-07-29 06:59:00,
2013-07-29 03:00:00,67.1,67.1,29.94,NNW,335,0.0,0.0,100,0.00,,---,0.05,VWS V14.01,2013-07-29 07:00:00,
2013-07-29 03:01:00,67.1,67.1,29.94,NNW,335,0.0,0.0,100,0.00,,---,0.05,VWS V14.01,2013-07-29 07:01:00,
2013-07-29 03:03:00,67.1,67.1,29.94,NNW,335,0.0,0.0,100,0.00,,---,0.05,VWS V14.01,2013-07-29 07:03:00,
2013-07-29 03:05:00,66.9,66.9,29.94,NNW,335,0.0,0.0,100,0.00,,---,0.05,VWS V14.01,2013-07-29 07:05:00,
2013-07-29 03:07:00,66.9,66.9,29.94,NNW,335,0.0,0.0,100,0.00,,---,0.05,VWS V14.01,2013-07-29 07:07:00,
2013-07-29 03:09:00,66.9,66.9,29.94,NNW,335,0.0,0.0,100,0.00,,---,0.05,VWS V14.01,2013-07-29 07:09:00,
2013-07-29 03:11:00,66.9,66.9,29.94,NNW,335,0.0,0.0,100,0.00,,---,0.05,VWS V14.01,2013-07-29 07:11:00,
2013-07-29 03:13:00,66.9,66.9,29.94,NNW,335,0.0,0.0,100,0.00,,---,0.05,VWS V14.01,2013-07-29 07:13:00,
2013-07-29 03:15:00,66.9,66.9,29.94,NNW,335,0.0,0.0,100,0.00,,---,0.05,VWS V14.01,2013-07-29 07:15:00,
2013-07-29 03:16:00,66.9,66.9,29.94,NNW,335,0.0,0.0,100,0.00,,---,0.05,VWS V14.01,2013-07-29 07:16:00,
2013-07-29 03:19:00,66.9,66.9,29.94,NNW,335,0.0,0.0,100,0.00,,---,0.05,VWS V14.01,2013-07-29 07:19:00,
2013-07-29 03:21:00,66.9,66.9,29.94,NNW,335,0.0,0.0,100,0.00,,---,0.05,VWS V14.01,2013-07-29 07:21:00,
2013-07-29 03:23:00,66.8,66.8,29.94,NNW,335,0.0,0.0,100,0.00,,---,0.05,VWS V14.01,2013-07-29 07:23:00,
2013-07-29 03:25:00,66.8,66.8,29.94,NNW,335,0.0,0.0,100,0.00,,---,0.05,VWS V14.01,2013-07-29 07:25:00,
2013-07-29 03:27:00,66.8,66.8,29.94,NNW,335,0.0,0.0,100,0.00,,---,0.05,VWS V14.01,2013-07-29 07:27:00,
2013-07-29 03:29:00,66.8,66.8,29.94,NNW,335,0.0,0.0,100,0.00,,---,0.05,VWS V14.01,2013-07-29 07:29:00,
2013-07-29 03:30:00,66.8,66.8,29.94,NNW,335,0.0,0.0,100,0.00,,---,0.05,VWS V14.01,2013-07-29 07:30:00,
2013-07-29 03:31:00,66.8,66.8,29.94,NNW,335,0.0,0.0,100,0.00,,---,0.05,VWS V14.01,2013-07-29 07:31:00,
2013-07-29 03:33:00,66.6,66.6,29.94,NNW,335,0.0,0.0,100,0.00,,---,0.05,VWS V14.01,2013-07-29 07:33:00,
2013-07-29 03:35:00,66.6,66.6,29.94,NNW,335,0.0,0.0,100,0.00,,---,0.05,VWS V14.01,2013-07-29 07:35:00,
2013-07-29 03:37:00,66.6,66.6,29.94,NNW,335,0.0,0.0,100,0.00,,---,0.05,VWS V14.01,2013-07-29 07:37:00,
2013-07-29 03:39:00,66.4,66.4,29.94,NNW,335,0.0,0.0,100,0.00,,---,0.05,VWS V14.01,2013-07-29 07:39:00,
2013-07-29 03:41:00,66.4,66.4,29.94,NNW,335,0.0,0.0,100,0.00,,---,0.05,VWS V14.01,2013-07-29 07:41:00,
2013-07-29 03:43:00,66.4,66.4,29.94,NNW,335,0.0,0.0,100,0.00,,---,0.05,VWS V14.01,2013-07-29 07:43:00,
2013-07-29 03:45:00,66.4,66.4,29.95,NNW,335,0.0,0.0,100,0.00,,---,0.05,VWS V14.01,2013-07-29 07:45:00,
2013-07-29 03:47:00,66.3,66.3,29.95,NNW,335,0.0,0.0,100,0.00,,---,0.05,VWS V14.01,2013-07-29 07:47:00,
2013-07-29 03:49:00,66.3,66.3,29.95,NNW,335,0.0,0.0,100,0.00,,---,0.05,VWS V14.01,2013-07-29 07:49:00,
2013-07-29 03:51:00,66.3,66.3,29.95,NNW,335,0.0,0.0,100,0.00,,---,0.05,VWS V14.01,2013-07-29 07:51:00,
2013-07-29 03:53:00,66.1,66.1,29.95,NNW,335,0.0,0.0,100,0.00,,---,0.05,VWS V14.01,2013-07-29 07:53:00,
2013-07-29 03:55:00,66.1,66.1,29.95,NNW,335,0.0,0.0,100,0.00,,---,0.05,VWS V14.01,2013-07-29 07:55:00,
2013-07-29 03:57:00,66.1,66.1,29.95,NNW,335,0.0,0.0,100,0.00,,---,0.05,VWS V14.01,2013-07-29 07:57:00,
2013-07-29 03:59:00,66.1,66.1,29.95,NNW,335,0.0,0.0,100,0.00,,---,0.05,VWS V14.01,2013-07-29 07:59:00,
2013-07-29 04:00:00,66.1,66.1,29.95,NNW,335,0.0,0.0,100,0.00,,---,0.05,VWS V14.01,2013-07-29 08:00:00,
2013-07-29 04:01:00,66.0,66.0,29.95,NNW,335,0.0,0.0,100,0.00,,---,0.05,VWS V14.01,2013-07-29 08:01:00,
2013-07-29 04:03:00,66.0,66.0,29.95,NNW,335,0.0,0.0,100,0.00,,---,0.05,VWS V14.01,2013-07-29 08:03:00,
2013-07-29 04:05:00,66.0,66.0,29.95,NNW,335,0.0,0.0,100,0.00,,---,0.05,VWS V14.01,2013-07-29 08:05:00,
2013-07-29 04:07:00,65.8,65.8,29.95,NNW,335,0.0,0.0,100,0.00,,---,0.05,VWS V14.01,2013-07-29 08:07:00,
2013-07-29 04:09:00,65.8,65.8,29.95,NNW,335,0.0,0.0,100,0.00,,---,0.05,VWS V14.01,2013-07-29 08:09:00,
2013-07-29 04:11:00,65.8,65.8,29.95,NNW,335,0.0,0.0,100,0.00,,---,0.05,VWS V14.01,2013-07-29 08:11:00,
2013-07-29 04:13:00,65.6,65.6,29.95,NNW,335,0.0,0.0,100,0.00,,---,0.05,VWS V14.01,2013-07-29 08:13:00,
2013-07-29 04:15:00,65.6,65.6,29.96,NNW,335,0.0,0.0,100,0.00,,---,0.05,VWS V14.01,2013-07-29 08:15:00,
2013-07-29 04:17:00,65.6,65.6,29.96,NNW,335,0.0,0.0,100,0.00,,---,0.05,VWS V14.01,2013-07-29 08:17:00,
2013-07-29 04:19:00,65.6,65.6,29.96,NNW,335,0.0,0.0,100,0.00,,---,0.05,VWS V14.01,2013-07-29 08:19:00,
2013-07-29 04:21:00,65.6,65.6,29.96,NNW,335,0.0,0.0,100,0.00,,---,0.05,VWS V14.01,2013-07-29 08:21:00,
2013-07-29 04:23:00,65.6,65.6,29.96,NNW,335,0.0,0.0,100,0.00,,---,0.05,VWS V14.01,2013-07-29 08:23:00,
2013-07-29 04:25:00,65.6,65.6,29.96,NNW,335,0.0,0.0,100,0.00,,---,0.05,VWS V14.01,2013-07-29 08:25:00,
2013-07-29 04:27:00,65.6,65.6,29.96,NNW,335,0.0,0.0,100,0.00,,---,0.05,VWS V14.01,2013-07-29 08:27:00,
2013-07-29 04:29:00,65.5,65.5,29.97,NNW,335,0.0,0.0,100,0.00,,---,0.05,VWS V14.01,2013-07-29 08:29:00,
2013-07-29 04:30:00,65.5,65.5,29.97,NNW,335,0.0,0.0,100,0.00,,---,0.05,VWS V14.01,2013-07-29 08:30:00,
2013-07-29 04:31:00,65.5,65.5,29.97,NNW,335,0.0,0.0,100,0.00,,---,0.05,VWS V14.01,2013-07-29 08:31:00,
2013-07-29 04:33:00,65.5,65.5,29.97,NNW,335,0.0,0.0,100,0.00,,---,0.05,VWS V14.01,2013-07-29 08:33:00,
2013-07-29 04:35:00,65.5,65.5,29.97,NNW,335,0.0,0.0,100,0.00,,---,0.05,VWS V14.01,2013-07-29 08:35:00,
2013-07-29 04:37:00,65.5,65.5,29.97,NNW,335,0.0,0.0,100,0.00,,---,0.05,VWS V14.01,2013-07-29 08:37:00,
2013-07-29 04:39:00,65.3,65.3,29.97,NNW,335,0.0,0.0,100,0.00,,---,0.05,VWS V14.01,2013-07-29 08:39:00,
2013-07-29 04:41:00,65.3,65.3,29.97,NNW,335,0.0,0.0,100,0.00,,---,0.05,VWS V14.01,2013-07-29 08:41:00,
2013-07-29 04:43:00,65.3,65.3,29.97,NNW,335,0.0,0.0,100,0.00,,---,0.05,VWS V14.01,2013-07-29 08:43:00,
2013-07-29 04:45:00,65.3,65.3,29.97,NNW,335,0.0,0.0,100,0.00,,---,0.05,VWS V14.01,2013-07-29 08:45:00,
2013-07-29 04:47:00,65.3,65.3,29.97,NNW,335,0.0,0.0,100,0.00,,---,0.05,VWS V14.01,2013-07-29 08:47:00,
2013-07-29 04:49:00,65.3,65.3,29.97,NNW,335,0.0,0.0,100,0.00,,---,0.05,VWS V14.01,2013-07-29 08:49:00,
2013-07-29 04:51:00,65.2,65.2,29.97,NNW,335,0.0,0.0,100,0.00,,---,0.05,VWS V14.01,2013-07-29 08:51:00,
2013-07-29 04:53:00,65.2,65.2,29.97,NNW,335,0.0,0.0,100,0.00,,---,0.05,VWS V14.01,2013-07-29 08:53:00,
2013-07-29 04:55:00,65.2,65.2,29.97,NNW,335,0.0,0.0,100,0.00,,---,0.05,VWS V14.01,2013-07-29 08:55:00,
2013-07-29 04:57:00,65.2,65.2,29.97,NNW,335,0.0,0.0,100,0.00,,---,0.05,VWS V14.01,2013-07-29 08:57:00,
2013-07-29 04:59:00,65.2,65.2,29.97,NNW,335,0.0,0.0,100,0.00,,---,0.05,VWS V14.01,2013-07-29 08:59:00,
2013-07-29 05:00:00,65.2,65.2,29.97,NNW,335,0.0,0.0,100,0.00,,---,0.05,VWS V14.01,2013-07-29 09:00:00,
2013-07-29 05:01:00,65.2,65.2,29.97,NNW,335,0.0,0.0,100,0.00,,---,0.05,VWS V14.01,2013-07-29 09:01:00,
2013-07-29 05:03:00,65.2,65.2,29.97,NNW,335,0.0,0.0,100,0.00,,---,0.05,VWS V14.01,2013-07-29 09:03:00,
2013-07-29 05:05:00,65.2,65.2,29.97,NNW,335,0.0,0.0,100,0.00,,---,0.05,VWS V14.01,2013-07-29 09:05:00,
2013-07-29 05:07:00,65.2,65.2,29.97,NNW,335,0.0,0.0,100,0.00,,---,0.05,VWS V14.01,2013-07-29 09:07:00,
2013-07-29 05:09:00,65.2,65.2,29.97,NNW,335,0.0,0.0,100,0.00,,---,0.05,VWS V14.01,2013-07-29 09:09:00,
2013-07-29 05:11:00,65.0,65.0,29.97,NNW,335,0.0,0.0,100,0.00,,---,0.05,VWS V14.01,2013-07-29 09:11:00,
2013-07-29 05:13:00,65.0,65.0,29.97,NNW,335,0.0,0.0,100,0.00,,---,0.05,VWS V14.01,2013-07-29 09:13:00,
2013-07-29 05:15:00,65.0,65.0,30.00,NNW,335,0.0,0.0,100,0.00,,---,0.05,VWS V14.01,2013-07-29 09:15:00,
2013-07-29 05:18:00,65.0,65.0,30.00,NNW,335,0.0,0.0,100,0.00,,---,0.05,VWS V14.01,2013-07-29 09:18:00,
2013-07-29 05:19:00,65.0,65.0,30.00,NNW,335,0.0,0.0,100,0.00,,---,0.05,VWS V14.01,2013-07-29 09:19:00,
2013-07-29 05:21:00,65.0,65.0,30.00,NNW,335,0.0,0.0,100,0.00,,---,0.05,VWS V14.01,2013-07-29 09:21:00,
2013-07-29 05:24:00,65.0,65.0,30.00,NNW,335,0.0,0.0,100,0.00,,---,0.05,VWS V14.01,2013-07-29 09:24:00,
2013-07-29 05:25:00,65.0,65.0,30.00,NNW,335,0.0,0.0,100,0.00,,---,0.05,VWS V14.01,2013-07-29 09:25:00,
2013-07-29 05:27:00,65.0,65.0,30.00,NNW,335,0.0,0.0,100,0.00,,---,0.05,VWS V14.01,2013-07-29 09:27:00,
2013-07-29 05:30:00,65.0,65.0,30.00,NNW,335,0.0,0.0,100,0.00,,---,0.05,VWS V14.01,2013-07-29 09:30:00,
2013-07-29 05:32:00,64.8,64.8,30.00,NNW,335,0.0,0.0,100,0.00,,---,0.05,VWS V14.01,2013-07-29 09:32:00,
2013-07-29 05:33:00,64.8,64.8,30.00,NNW,335,0.0,0.0,100,0.00,,---,0.05,VWS V14.01,2013-07-29 09:33:00,
2013-07-29 05:36:00,64.8,64.8,30.00,NNW,335,0.0,0.0,100,0.00,,---,0.05,VWS V14.01,2013-07-29 09:36:00,
2013-07-29 05:38:00,64.8,64.8,30.00,NNW,335,0.0,0.0,100,0.00,,---,0.05,VWS V14.01,2013-07-29 09:38:00,
2013-07-29 05:40:00,64.8,64.8,30.00,NNW,335,0.0,0.0,100,0.00,,---,0.05,VWS V14.01,2013-07-29 09:40:00,
2013-07-29 05:42:00,64.7,64.7,30.00,NNW,335,0.0,0.0,100,0.00,,---,0.05,VWS V14.01,2013-07-29 09:42:00,
2013-07-29 05:44:00,64.7,64.7,30.00,NNW,335,0.0,2.0,100,0.00,,---,0.05,VWS V14.01,2013-07-29 09:44:00,
2013-07-29 05:45:00,64.7,64.7,30.00,NNW,335,1.0,2.0,100,0.00,,---,0.05,VWS V14.01,2013-07-29 09:45:00,
2013-07-29 05:46:00,64.7,64.7,30.00,NNW,335,0.0,1.0,100,0.00,,---,0.05,VWS V14.01,2013-07-29 09:46:00,
2013-07-29 05:48:00,64.7,64.7,30.00,NNW,335,0.0,1.0,100,0.00,,---,0.05,VWS V14.01,2013-07-29 09:48:00,
2013-07-29 05:50:00,64.7,64.7,30.00,NNW,335,0.0,1.0,100,0.00,,---,0.05,VWS V14.01,2013-07-29 09:50:00,
2013-07-29 05:52:00,64.7,64.7,30.00,NNW,335,0.0,1.0,100,0.00,,---,0.05,VWS V14.01,2013-07-29 09:52:00,
2013-07-29 05:54:00,64.7,64.7,30.00,NNW,335,0.0,1.0,100,0.00,,---,0.05,VWS V14.01,2013-07-29 09:54:00,
2013-07-29 05:56:00,64.5,64.5,30.00,NNW,335,0.0,1.0,100,0.00,,---,0.05,VWS V14.01,2013-07-29 09:56:00,
2013-07-29 05:58:00,64.5,64.5,30.00,NNW,335,0.0,1.0,100,0.00,,---,0.05,VWS V14.01,2013-07-29 09:58:00,
2013-07-29 06:00:00,64.5,64.5,30.01,NNW,335,0.0,1.0,100,0.00,,---,0.05,VWS V14.01,2013-07-29 10:00:00,
2013-07-29 06:02:00,64.5,64.5,30.01,NNW,335,0.0,0.0,100,0.00,,---,0.05,VWS V14.01,2013-07-29 10:02:00,
2013-07-29 06:04:00,64.5,64.5,30.01,NNW,335,0.0,0.0,100,0.00,,---,0.05,VWS V14.01,2013-07-29 10:04:00,
2013-07-29 06:06:00,64.3,64.3,30.01,NNW,335,0.0,0.0,100,0.00,,---,0.05,VWS V14.01,2013-07-29 10:06:00,
2013-07-29 06:08:00,64.3,64.3,30.01,NNW,335,0.0,0.0,100,0.00,,---,0.05,VWS V14.01,2013-07-29 10:08:00,
2013-07-29 06:10:00,64.3,64.3,30.01,NNW,335,0.0,0.0,100,0.00,,---,0.05,VWS V14.01,2013-07-29 10:10:00,
2013-07-29 06:12:00,64.3,64.3,30.01,NNW,335,0.0,0.0,100,0.00,,---,0.05,VWS V14.01,2013-07-29 10:12:00,
2013-07-29 06:14:00,64.3,64.3,30.02,NNW,335,0.0,0.0,100,0.00,,---,0.05,VWS V14.01,2013-07-29 10:14:00,
2013-07-29 06:15:00,64.3,64.3,30.02,NNW,335,0.0,0.0,100,0.00,,---,0.05,VWS V14.01,2013-07-29 10:15:00,
2013-07-29 06:16:00,64.2,64.2,30.02,NNW,335,0.0,0.0,100,0.00,,---,0.05,VWS V14.01,2013-07-29 10:16:00,
2013-07-29 06:18:00,64.2,64.2,30.02,NNW,335,0.0,1.0,100,0.00,,---,0.05,VWS V14.01,2013-07-29 10:18:00,
2013-07-29 06:20:00,64.2,64.2,30.02,NNW,335,0.0,1.0,100,0.00,,---,0.05,VWS V14.01,2013-07-29 10:20:00,
2013-07-29 06:22:00,64.2,63.9,30.02,NNW,335,0.0,1.0,99,0.00,,---,0.05,VWS V14.01,2013-07-29 10:22:00,
2013-07-29 06:26:00,64.0,63.7,30.02,NNW,335,0.0,1.0,99,0.00,,---,0.05,VWS V14.01,2013-07-29 10:26:00,
2013-07-29 06:28:00,64.0,63.7,30.02,NNW,335,0.0,1.0,99,0.00,,---,0.05,VWS V14.01,2013-07-29 10:28:00,
2013-07-29 06:30:00,64.0,63.7,30.02,NNW,335,0.0,1.0,99,0.00,,---,0.05,VWS V14.01,2013-07-29 10:30:00,
2013-07-29 06:31:00,64.0,63.7,30.02,NNW,335,0.0,0.0,99,0.00,,---,0.05,VWS V14.01,2013-07-29 10:31:00,
2013-07-29 06:33:00,64.0,63.7,30.02,NNW,335,0.0,0.0,99,0.00,,---,0.05,VWS V14.01,2013-07-29 10:33:00,
2013-07-29 06:35:00,64.0,63.7,30.02,NNW,335,0.0,0.0,99,0.00,,---,0.05,VWS V14.01,2013-07-29 10:35:00,
2013-07-29 06:37:00,64.0,63.7,30.02,NNW,335,0.0,0.0,99,0.00,,---,0.05,VWS V14.01,2013-07-29 10:37:00,
2013-07-29 06:39:00,64.0,63.7,30.02,NNW,335,0.0,0.0,99,0.00,,---,0.05,VWS V14.01,2013-07-29 10:39:00,
2013-07-29 06:41:00,64.0,63.7,30.02,NNW,335,0.0,0.0,99,0.00,,---,0.05,VWS V14.01,2013-07-29 10:41:00,
2013-07-29 06:43:00,63.9,63.6,30.02,NNW,335,0.0,0.0,99,0.00,,---,0.05,VWS V14.01,2013-07-29 10:43:00,
2013-07-29 06:45:00,63.9,63.6,30.03,NNW,335,0.0,0.0,99,0.00,,---,0.05,VWS V14.01,2013-07-29 10:45:00,
2013-07-29 06:47:00,63.9,63.6,30.03,NNW,335,0.0,0.0,99,0.00,,---,0.05,VWS V14.01,2013-07-29 10:47:00,
2013-07-29 06:49:00,63.9,63.6,30.03,NNW,335,1.0,1.0,99,0.00,,---,0.05,VWS V14.01,2013-07-29 10:49:00,
2013-07-29 06:51:00,63.9,63.6,30.03,NNW,335,0.0,1.0,99,0.00,,---,0.05,VWS V14.01,2013-07-29 10:51:00,
2013-07-29 06:53:00,63.9,63.6,30.03,NNW,335,0.0,1.0,99,0.00,,---,0.05,VWS V14.01,2013-07-29 10:53:00,
2013-07-29 06:55:00,63.9,63.6,30.03,NNW,335,0.0,1.0,99,0.00,,---,0.05,VWS V14.01,2013-07-29 10:55:00,
2013-07-29 06:57:00,63.9,63.6,30.03,NNW,335,0.0,1.0,99,0.00,,---,0.05,VWS V14.01,2013-07-29 10:57:00,
2013-07-29 06:59:00,63.9,63.6,30.02,NNW,335,0.0,1.0,99,0.00,,---,0.05,VWS V14.01,2013-07-29 10:59:00,
2013-07-29 07:00:00,63.9,63.6,30.02,NNW,335,0.0,1.0,99,0.00,,---,0.05,VWS V14.01,2013-07-29 11:00:00,
2013-07-29 07:01:00,63.9,63.6,30.02,NNW,335,0.0,0.0,99,0.00,,---,0.05,VWS V14.01,2013-07-29 11:01:00,
2013-07-29 07:03:00,63.9,63.6,30.02,NNW,335,0.0,0.0,99,0.00,,---,0.05,VWS V14.01,2013-07-29 11:03:00,
2013-07-29 07:05:00,63.9,63.6,30.02,NNW,335,0.0,0.0,99,0.00,,---,0.05,VWS V14.01,2013-07-29 11:05:00,
2013-07-29 07:07:00,63.9,63.6,30.02,NNW,335,0.0,2.0,99,0.00,,---,0.05,VWS V14.01,2013-07-29 11:07:00,
2013-07-29 07:10:00,63.9,63.6,30.02,NNW,335,0.0,2.0,99,0.00,,---,0.05,VWS V14.01,2013-07-29 11:10:00,
2013-07-29 07:12:00,63.9,63.6,30.02,NNW,335,0.0,2.0,99,0.00,,---,0.05,VWS V14.01,2013-07-29 11:12:00,
2013-07-29 07:14:00,63.9,63.3,30.02,NNW,335,0.0,2.0,98,0.00,,---,0.05,VWS V14.01,2013-07-29 11:14:00,
2013-07-29 07:15:00,63.9,63.6,30.03,NNW,335,0.0,2.0,99,0.00,,---,0.05,VWS V14.01,2013-07-29 11:15:00,
2013-07-29 07:16:00,63.9,63.3,30.03,NNW,335,0.0,0.0,98,0.00,,---,0.05,VWS V14.01,2013-07-29 11:16:00,
2013-07-29 07:18:00,63.9,63.3,30.03,NNW,335,0.0,0.0,98,0.00,,---,0.05,VWS V14.01,2013-07-29 11:18:00,
2013-07-29 07:20:00,63.9,63.3,30.03,NNW,335,0.0,1.0,98,0.00,,---,0.05,VWS V14.01,2013-07-29 11:20:00,
2013-07-29 07:22:00,64.0,63.4,30.03,NNW,335,0.0,1.0,98,0.00,,---,0.05,VWS V14.01,2013-07-29 11:22:00,
2013-07-29 07:26:00,64.0,63.4,30.03,NNW,335,0.0,2.0,98,0.00,,---,0.05,VWS V14.01,2013-07-29 11:26:00,
2013-07-29 07:28:00,64.0,63.4,30.03,NNW,335,0.0,2.0,98,0.00,,---,0.05,VWS V14.01,2013-07-29 11:28:00,
2013-07-29 07:30:00,64.0,63.4,30.03,NNW,335,0.0,2.0,98,0.00,,---,0.05,VWS V14.01,2013-07-29 11:30:00,
2013-07-29 07:32:00,64.2,63.6,30.03,NNW,335,3.0,3.0,98,0.00,,---,0.05,VWS V14.01,2013-07-29 11:32:00,
2013-07-29 07:34:00,64.2,63.6,30.03,NNW,335,0.0,3.0,98,0.00,,---,0.05,VWS V14.01,2013-07-29 11:34:00,
2013-07-29 07:36:00,64.3,63.7,30.03,NNW,335,0.0,3.0,98,0.00,,---,0.05,VWS V14.01,2013-07-29 11:36:00,
2013-07-29 07:38:00,64.3,63.7,30.03,NNW,335,0.0,3.0,98,0.00,,---,0.05,VWS V14.01,2013-07-29 11:38:00,
2013-07-29 07:40:00,64.5,63.9,30.03,NNW,335,0.0,3.0,98,0.00,,---,0.05,VWS V14.01,2013-07-29 11:40:00,
2013-07-29 07:42:00,64.5,63.6,30.03,NNW,335,0.0,3.0,97,0.00,,---,0.05,VWS V14.01,2013-07-29 11:42:00,
2013-07-29 07:45:00,64.7,63.8,30.04,NNW,335,0.0,3.0,97,0.00,,---,0.05,VWS V14.01,2013-07-29 11:45:00,
2013-07-29 07:47:00,64.7,63.8,30.04,NNW,335,3.0,3.0,97,0.00,,---,0.05,VWS V14.01,2013-07-29 11:47:00,
2013-07-29 07:49:00,64.8,63.9,30.04,NNW,335,3.0,4.0,97,0.00,,---,0.05,VWS V14.01,2013-07-29 11:49:00,
2013-07-29 07:53:00,65.0,64.1,30.04,NNW,346,0.0,4.0,97,0.00,,---,0.05,VWS V14.01,2013-07-29 11:53:00,
2013-07-29 07:55:00,65.0,64.1,30.04,NNW,346,0.0,4.0,97,0.00,,---,0.05,VWS V14.01,2013-07-29 11:55:00,
2013-07-29 07:57:00,65.2,64.0,30.04,NNW,346,0.0,4.0,96,0.00,,---,0.05,VWS V14.01,2013-07-29 11:57:00,
2013-07-29 07:59:00,65.2,64.0,30.05,NNW,346,0.0,4.0,96,0.00,,---,0.05,VWS V14.01,2013-07-29 11:59:00,
2013-07-29 08:00:00,65.3,64.1,30.05,NNW,346,0.0,4.0,96,0.00,,---,0.05,VWS V14.01,2013-07-29 12:00:00,
2013-07-29 08:01:00,65.3,64.1,30.05,NNW,346,0.0,0.0,96,0.00,,---,0.05,VWS V14.01,2013-07-29 12:01:00,
2013-07-29 08:03:00,65.5,64.3,30.05,NNW,346,0.0,3.0,96,0.00,,---,0.05,VWS V14.01,2013-07-29 12:03:00,
2013-07-29 08:05:00,65.5,64.0,30.05,NNW,346,0.0,3.0,95,0.00,,---,0.05,VWS V14.01,2013-07-29 12:05:00,
2013-07-29 08:07:00,65.5,63.7,30.05,NNW,346,0.0,3.0,94,0.00,,---,0.05,VWS V14.01,2013-07-29 12:07:00,
2013-07-29 08:09:00,65.6,63.5,30.05,NNW,346,0.0,3.0,93,0.00,,---,0.05,VWS V14.01,2013-07-29 12:09:00,
2013-07-29 08:11:00,65.6,63.2,30.05,North,349,0.0,3.0,92,0.00,,---,0.05,VWS V14.01,2013-07-29 12:11:00,
2013-07-29 08:13:00,65.8,63.1,30.05,North,349,0.0,3.0,91,0.00,,---,0.05,VWS V14.01,2013-07-29 12:13:00,
2013-07-29 08:15:00,65.8,63.1,30.05,North,349,0.0,3.0,91,0.00,,---,0.05,VWS V14.01,2013-07-29 12:15:00,
2013-07-29 08:17:00,66.0,63.0,30.05,North,349,0.0,3.0,90,0.00,,---,0.05,VWS V14.01,2013-07-29 12:17:00,
2013-07-29 08:19:00,66.1,63.1,30.05,North,349,0.0,3.0,90,0.00,,---,0.05,VWS V14.01,2013-07-29 12:19:00,
2013-07-29 08:21:00,66.3,63.3,30.05,North,349,0.0,3.0,90,0.00,,---,0.05,VWS V14.01,2013-07-29 12:21:00,
2013-07-29 08:23:00,66.4,62.7,30.05,North,349,0.0,3.0,88,0.00,,---,0.05,VWS V14.01,2013-07-29 12:23:00,
2013-07-29 08:25:00,66.6,62.9,30.05,NNW,339,0.0,3.0,88,0.00,,---,0.05,VWS V14.01,2013-07-29 12:25:00,
2013-07-29 08:27:00,66.6,62.3,30.05,NW,326,0.0,3.0,86,0.00,,---,0.05,VWS V14.01,2013-07-29 12:27:00,
2013-07-29 08:29:00,66.8,62.5,30.05,North,352,1.0,3.0,86,0.00,,---,0.05,VWS V14.01,2013-07-29 12:29:00,
2013-07-29 08:30:00,66.8,62.5,30.05,North,352,0.0,3.0,86,0.00,,---,0.05,VWS V14.01,2013-07-29 12:30:00,
2013-07-29 08:31:00,66.9,62.6,30.05,NNW,338,0.0,4.0,86,0.00,,---,0.05,VWS V14.01,2013-07-29 12:31:00,
2013-07-29 08:33:00,67.1,62.5,30.05,NNW,338,0.0,4.0,85,0.00,,---,0.05,VWS V14.01,2013-07-29 12:33:00,
2013-07-29 08:35:00,67.3,62.3,30.05,NNW,338,0.0,4.0,84,0.00,,---,0.05,VWS V14.01,2013-07-29 12:35:00,
2013-07-29 08:37:00,67.4,62.7,30.05,NNW,347,0.0,4.0,85,0.00,,---,0.05,VWS V14.01,2013-07-29 12:37:00,
2013-07-29 08:40:00,67.4,61.7,30.05,NNW,347,0.0,4.0,82,0.00,,---,0.05,VWS V14.01,2013-07-29 12:40:00,
2013-07-29 08:42:00,67.6,61.9,30.05,NNW,328,4.0,4.0,82,0.00,,---,0.05,VWS V14.01,2013-07-29 12:42:00,
2013-07-29 08:44:00,67.6,60.9,30.05,NW,325,0.0,4.0,79,0.00,,---,0.05,VWS V14.01,2013-07-29 12:44:00,
2013-07-29 08:45:00,67.8,61.4,30.05,NNW,347,0.0,4.0,80,0.00,,---,0.05,VWS V14.01,2013-07-29 12:45:00,
2013-07-29 08:46:00,67.8,61.8,30.05,NNW,347,0.0,0.0,81,0.00,,---,0.05,VWS V14.01,2013-07-29 12:46:00,
2013-07-29 08:48:00,67.9,61.2,30.05,North,352,0.0,0.0,79,0.00,,---,0.05,VWS V14.01,2013-07-29 12:48:00,
2013-07-29 08:50:00,68.1,61.3,30.05,North,352,0.0,0.0,79,0.00,,---,0.05,VWS V14.01,2013-07-29 12:50:00,
2013-07-29 08:52:00,68.3,60.8,30.05,NNW,341,0.0,0.0,77,0.00,,---,0.05,VWS V14.01,2013-07-29 12:52:00,
2013-07-29 08:54:00,68.4,60.5,30.05,NW,318,0.0,5.0,76,0.00,,---,0.05,VWS V14.01,2013-07-29 12:54:00,
2013-07-29 08:56:00,68.6,60.7,30.05,NW,318,0.0,5.0,76,0.00,,---,0.05,VWS V14.01,2013-07-29 12:56:00,
2013-07-29 08:58:00,68.8,61.3,30.05,NW,318,0.0,5.0,77,0.00,,---,0.05,VWS V14.01,2013-07-29 12:58:00,
2013-07-29 09:00:00,68.9,61.0,30.05,NW,318,0.0,5.0,76,0.00,,---,0.05,VWS V14.01,2013-07-29 13:00:00,
2013-07-29 09:02:00,69.1,61.2,30.05,NW,318,0.0,0.0,76,0.00,,---,0.05,VWS V14.01,2013-07-29 13:02:00,
2013-07-29 09:09:00,69.6,61.3,30.05,North,359,0.0,2.0,75,0.00,,---,0.05,VWS V14.01,2013-07-29 13:09:00,
2013-07-29 09:11:00,69.8,61.5,30.05,NW,319,3.0,5.0,75,0.00,,---,0.05,VWS V14.01,2013-07-29 13:11:00,
2013-07-29 09:13:00,69.8,61.2,30.05,NW,319,0.0,5.0,74,0.00,,---,0.05,VWS V14.01,2013-07-29 13:13:00,
2013-07-29 09:15:00,69.9,61.6,30.05,NW,319,0.0,5.0,75,0.00,,---,0.05,VWS V14.01,2013-07-29 13:15:00,
2013-07-29 09:17:00,70.1,60.7,30.05,NW,319,0.0,0.0,72,0.00,,---,0.05,VWS V14.01,2013-07-29 13:17:00,
2013-07-29 09:19:00,70.1,60.3,30.05,NW,326,0.0,4.0,71,0.00,,---,0.05,VWS V14.01,2013-07-29 13:19:00,
2013-07-29 09:21:00,70.3,60.5,30.05,NW,326,1.0,4.0,71,0.00,,---,0.05,VWS V14.01,2013-07-29 13:21:00,
2013-07-29 09:23:00,70.3,60.5,30.05,North,358,0.0,4.0,71,0.00,,---,0.05,VWS V14.01,2013-07-29 13:23:00,
2013-07-29 09:25:00,70.4,60.6,30.05,NNW,339,0.0,4.0,71,0.00,,---,0.05,VWS V14.01,2013-07-29 13:25:00,
2013-07-29 09:27:00,70.6,61.1,30.05,NNW,327,4.0,4.0,72,0.00,,---,0.05,VWS V14.01,2013-07-29 13:27:00,
2013-07-29 09:29:00,70.6,60.0,30.05,North,0,0.0,4.0,69,0.00,,---,0.05,VWS V14.01,2013-07-29 13:29:00,
2013-07-29 09:30:00,70.8,60.1,30.05,North,0,0.0,4.0,69,0.00,,---,0.05,VWS V14.01,2013-07-29 13:30:00,
2013-07-29 09:31:00,70.8,60.5,30.05,North,0,0.0,1.0,70,0.00,,---,0.05,VWS V14.01,2013-07-29 13:31:00,
2013-07-29 09:33:00,70.8,59.7,30.05,North,0,0.0,1.0,68,0.00,,---,0.05,VWS V14.01,2013-07-29 13:33:00,
2013-07-29 09:35:00,70.9,60.6,30.05,North,8,3.0,5.0,70,0.00,,---,0.05,VWS V14.01,2013-07-29 13:35:00,
2013-07-29 09:37:00,71.1,59.6,30.05,NW,310,0.0,5.0,67,0.00,,---,0.05,VWS V14.01,2013-07-29 13:37:00,
2013-07-29 09:39:00,71.1,59.2,30.05,NNW,332,1.0,5.0,66,0.00,,---,0.05,VWS V14.01,2013-07-29 13:39:00,
2013-07-29 09:41:00,71.3,58.1,30.05,NNW,341,0.0,5.0,63,0.00,,---,0.05,VWS V14.01,2013-07-29 13:41:00,
2013-07-29 09:43:00,71.3,58.9,30.05,North,352,0.0,5.0,65,0.00,,---,0.05,VWS V14.01,2013-07-29 13:43:00,
2013-07-29 09:45:00,71.5,58.3,30.06,NNW,335,0.0,5.0,63,0.00,,---,0.05,VWS V14.01,2013-07-29 13:45:00,
2013-07-29 09:47:00,71.5,58.3,30.06,NNW,347,0.0,4.0,63,0.00,,---,0.05,VWS V14.01,2013-07-29 13:47:00,
2013-07-29 09:49:00,71.6,58.8,30.06,NW,326,0.0,4.0,64,0.00,,---,0.05,VWS V14.01,2013-07-29 13:49:00,
2013-07-29 09:51:00,71.6,57.5,30.06,NW,323,0.0,4.0,61,0.00,,---,0.05,VWS V14.01,2013-07-29 13:51:00,
2013-07-29 09:53:00,71.8,58.5,30.06,North,1,0.0,4.0,63,0.00,,---,0.05,VWS V14.01,2013-07-29 13:53:00,
2013-07-29 09:55:00,72.0,59.6,30.06,North,0,0.0,4.0,65,0.00,,---,0.05,VWS V14.01,2013-07-29 13:55:00,
2013-07-29 09:58:00,72.1,59.3,30.06,North,0,0.0,4.0,64,0.00,,---,0.05,VWS V14.01,2013-07-29 13:58:00,
2013-07-29 10:00:00,72.1,59.7,30.06,WNW,303,0.0,4.0,65,0.00,,---,0.05,VWS V14.01,2013-07-29 14:00:00,
2013-07-29 10:02:00,72.1,57.9,30.06,NW,323,0.0,4.0,61,0.00,,---,0.05,VWS V14.01,2013-07-29 14:02:00,
2013-07-29 10:04:00,72.3,58.6,30.06,North,0,0.0,4.0,62,0.00,,---,0.05,VWS V14.01,2013-07-29 14:04:00,
2013-07-29 10:06:00,72.3,59.9,30.06,North,10,0.0,4.0,65,0.00,,---,0.05,VWS V14.01,2013-07-29 14:06:00,
2013-07-29 10:08:00,72.5,58.3,30.06,North,359,1.0,4.0,61,0.00,,---,0.05,VWS V14.01,2013-07-29 14:08:00,
2013-07-29 10:10:00,72.7,58.5,30.06,North,1,0.0,4.0,61,0.00,,---,0.05,VWS V14.01,2013-07-29 14:10:00,
2013-07-29 10:12:00,72.8,58.6,30.06,NW,321,0.0,4.0,61,0.00,,---,0.05,VWS V14.01,2013-07-29 14:12:00,
2013-07-29 10:14:00,72.8,58.6,30.06,NNW,328,0.0,4.0,61,0.00,,---,0.05,VWS V14.01,2013-07-29 14:14:00,
2013-07-29 10:16:00,73.0,59.2,30.06,NNW,332,0.0,0.0,62,0.00,,---,0.05,VWS V14.01,2013-07-29 14:16:00,
2013-07-29 10:18:00,73.0,58.3,30.06,NNW,332,0.0,0.0,60,0.00,,---,0.05,VWS V14.01,2013-07-29 14:18:00,
2013-07-29 10:20:00,73.2,57.1,30.06,NNW,333,0.0,0.0,57,0.00,,---,0.05,VWS V14.01,2013-07-29 14:20:00,
2013-07-29 10:22:00,73.2,58.5,30.06,NNW,338,0.0,2.0,60,0.00,,---,0.05,VWS V14.01,2013-07-29 14:22:00,
2013-07-29 10:24:00,73.2,58.5,30.06,NNW,338,0.0,2.0,60,0.00,,---,0.05,VWS V14.01,2013-07-29 14:24:00,
2013-07-29 10:26:00,73.3,57.7,30.06,NNW,340,0.0,3.0,58,0.00,,---,0.05,VWS V14.01,2013-07-29 14:26:00,
2013-07-29 10:28:00,73.5,57.8,30.06,NNW,338,0.0,3.0,58,0.00,,---,0.05,VWS V14.01,2013-07-29 14:28:00,
2013-07-29 10:30:00,73.5,58.3,30.07,NNW,338,0.0,3.0,59,0.00,,---,0.05,VWS V14.01,2013-07-29 14:30:00,
2013-07-29 10:32:00,73.5,57.3,30.07,NNE,12,0.0,1.0,57,0.00,,---,0.05,VWS V14.01,2013-07-29 14:32:00,
2013-07-29 10:36:00,73.7,58.0,30.07,NNW,330,5.0,5.0,58,0.00,,---,0.05,VWS V14.01,2013-07-29 14:36:00,
2013-07-29 10:38:00,73.5,57.3,30.07,North,1,0.0,5.0,57,0.00,,---,0.05,VWS V14.01,2013-07-29 14:38:00,
2013-07-29 10:40:00,73.7,58.5,30.07,North,1,0.0,5.0,59,0.00,,---,0.05,VWS V14.01,2013-07-29 14:40:00,
2013-07-29 10:42:00,73.7,58.0,30.07,North,1,0.0,5.0,58,0.00,,---,0.05,VWS V14.01,2013-07-29 14:42:00,
2013-07-29 10:44:00,74.0,60.2,30.07,NNW,328,1.0,5.0,62,0.00,,---,0.05,VWS V14.01,2013-07-29 14:44:00,
2013-07-29 10:45:00,74.0,60.2,30.07,NNW,328,0.0,5.0,62,0.00,,---,0.05,VWS V14.01,2013-07-29 14:45:00,
2013-07-29 10:47:00,74.2,58.0,30.07,NW,326,0.0,1.0,57,0.00,,---,0.05,VWS V14.01,2013-07-29 14:47:00,
2013-07-29 10:49:00,74.2,59.0,30.07,NNW,330,0.0,1.0,59,0.00,,---,0.05,VWS V14.01,2013-07-29 14:49:00,
2013-07-29 10:51:00,74.6,58.9,30.07,ESE,112,0.0,4.0,58,0.00,,---,0.05,VWS V14.01,2013-07-29 14:51:00,
2013-07-29 10:53:00,74.7,58.5,30.07,NW,325,2.0,7.0,57,0.00,,---,0.05,VWS V14.01,2013-07-29 14:53:00,
2013-07-29 10:55:00,74.9,58.7,30.07,North,351,0.0,7.0,57,0.00,,---,0.05,VWS V14.01,2013-07-29 14:55:00,
2013-07-29 10:57:00,74.9,59.1,30.07,North,3,0.0,7.0,58,0.00,,---,0.05,VWS V14.01,2013-07-29 14:57:00,
2013-07-29 10:59:00,75.1,57.8,30.07,North,3,0.0,7.0,55,0.00,,---,0.05,VWS V14.01,2013-07-29 14:59:00,
2013-07-29 11:00:00,75.3,57.5,30.07,North,3,0.0,7.0,54,0.00,,---,0.05,VWS V14.01,2013-07-29 15:00:00,
2013-07-29 11:01:00,75.3,58.0,30.07,NNW,343,0.0,0.0,55,0.00,,---,0.05,VWS V14.01,2013-07-29 15:01:00,
2013-07-29 11:03:00,75.4,58.1,30.07,NNW,331,5.0,5.0,55,0.00,,---,0.05,VWS V14.01,2013-07-29 15:03:00,
2013-07-29 11:05:00,75.3,56.5,30.07,North,358,0.0,6.0,52,0.00,,---,0.05,VWS V14.01,2013-07-29 15:05:00,
2013-07-29 11:07:00,75.1,57.3,30.07,West,274,0.0,6.0,54,0.00,,---,0.05,VWS V14.01,2013-07-29 15:07:00,
2013-07-29 11:09:00,75.3,58.0,30.07,NNW,342,0.0,6.0,55,0.00,,---,0.05,VWS V14.01,2013-07-29 15:09:00,
2013-07-29 11:11:00,75.3,58.5,30.07,NNW,340,0.0,6.0,56,0.00,,---,0.05,VWS V14.01,2013-07-29 15:11:00,
2013-07-29 11:13:00,75.3,58.5,30.07,North,350,0.0,6.0,56,0.00,,---,0.05,VWS V14.01,2013-07-29 15:13:00,
2013-07-29 11:15:00,75.1,56.8,30.07,North,350,0.0,6.0,53,0.00,,---,0.05,VWS V14.01,2013-07-29 15:15:00,
2013-07-29 11:17:00,75.1,56.3,30.07,NE,43,0.0,0.0,52,0.00,,---,0.05,VWS V14.01,2013-07-29 15:17:00,
2013-07-29 11:19:00,75.3,58.0,30.07,North,0,0.0,0.0,55,0.00,,---,0.05,VWS V14.01,2013-07-29 15:19:00,
2013-07-29 11:21:00,75.3,59.0,30.07,North,357,0.0,1.0,57,0.00,,---,0.05,VWS V14.01,2013-07-29 15:21:00,
2013-07-29 11:23:00,75.4,57.6,30.07,North,354,0.0,1.0,54,0.00,,---,0.05,VWS V14.01,2013-07-29 15:23:00,
2013-07-29 11:25:00,75.6,59.8,30.07,NW,320,1.0,4.0,58,0.00,,---,0.05,VWS V14.01,2013-07-29 15:25:00,
2013-07-29 11:27:00,75.6,58.3,30.07,North,1,2.0,5.0,55,0.00,,---,0.05,VWS V14.01,2013-07-29 15:27:00,
2013-07-29 11:29:00,75.4,56.6,30.06,NW,307,6.0,8.0,52,0.00,,---,0.05,VWS V14.01,2013-07-29 15:29:00,
2013-07-29 11:30:00,75.4,56.6,30.06,NW,307,6.0,8.0,52,0.00,,---,0.05,VWS V14.01,2013-07-29 15:30:00,
2013-07-29 11:31:00,75.4,58.6,30.06,NW,323,0.0,6.0,56,0.00,,---,0.05,VWS V14.01,2013-07-29 15:31:00,
2013-07-29 11:33:00,75.4,58.1,30.06,NNW,347,0.0,6.0,55,0.00,,---,0.05,VWS V14.01,2013-07-29 15:33:00,
2013-07-29 11:35:00,75.4,57.6,30.06,North,2,0.0,6.0,54,0.00,,---,0.05,VWS V14.01,2013-07-29 15:35:00,
2013-07-29 11:37:00,75.6,57.3,30.06,North,2,0.0,6.0,53,0.00,,---,0.05,VWS V14.01,2013-07-29 15:37:00,
2013-07-29 11:39:00,75.8,58.5,30.06,North,1,0.0,6.0,55,0.00,,---,0.05,VWS V14.01,2013-07-29 15:39:00,
2013-07-29 11:41:00,76.0,57.7,30.06,NNW,335,4.0,6.0,53,0.00,,---,0.05,VWS V14.01,2013-07-29 15:41:00,
2013-07-29 11:43:00,76.0,58.2,30.06,NNW,335,0.0,6.0,54,0.00,,---,0.05,VWS V14.01,2013-07-29 15:43:00,
2013-07-29 11:45:00,76.1,58.3,30.06,NNW,335,0.0,6.0,54,0.00,,---,0.05,VWS V14.01,2013-07-29 15:45:00,
2013-07-29 11:47:00,76.5,58.1,30.06,NNW,335,0.0,0.0,53,0.00,,---,0.05,VWS V14.01,2013-07-29 15:47:00,
2013-07-29 11:49:00,76.7,57.8,30.06,North,1,0.0,6.0,52,0.00,,---,0.05,VWS V14.01,2013-07-29 15:49:00,
2013-07-29 11:52:00,76.7,57.8,30.06,North,1,0.0,6.0,52,0.00,,---,0.05,VWS V14.01,2013-07-29 15:52:00,
2013-07-29 11:54:00,76.8,57.9,30.06,North,1,0.0,6.0,52,0.00,,---,0.05,VWS V14.01,2013-07-29 15:54:00,
2013-07-29 11:56:00,76.8,57.9,30.06,North,1,0.0,6.0,52,0.00,,---,0.05,VWS V14.01,2013-07-29 15:56:00,
2013-07-29 11:58:00,77.0,58.6,30.06,North,1,0.0,6.0,53,0.00,,---,0.05,VWS V14.01,2013-07-29 15:58:00,
2013-07-29 12:00:00,77.0,57.5,30.06,North,352,0.0,6.0,51,0.00,,---,0.05,VWS V14.01,2013-07-29 16:00:00,
2013-07-29 12:06:00,77.7,57.6,30.06,NNE,14,0.0,1.0,50,0.00,,---,0.05,VWS V14.01,2013-07-29 16:06:00,
2013-07-29 12:08:00,77.9,57.8,30.06,NNE,13,0.0,1.0,50,0.00,,---,0.05,VWS V14.01,2013-07-29 16:08:00,
2013-07-29 12:10:00,78.1,57.4,30.06,NNW,329,0.0,1.0,49,0.00,,---,0.05,VWS V14.01,2013-07-29 16:10:00,
2013-07-29 12:12:00,78.1,58.5,30.06,North,352,0.0,5.0,51,0.00,,---,0.05,VWS V14.01,2013-07-29 16:12:00,
2013-07-29 12:14:00,77.9,59.9,30.06,North,350,0.0,5.0,54,0.00,,---,0.05,VWS V14.01,2013-07-29 16:14:00,
2013-07-29 12:15:00,77.9,57.8,30.06,NNW,338,0.0,5.0,50,0.00,,---,0.05,VWS V14.01,2013-07-29 16:15:00,
2013-07-29 12:16:00,77.7,57.0,30.06,NW,326,2.0,6.0,49,0.00,,---,0.05,VWS V14.01,2013-07-29 16:16:00,
2013-07-29 12:18:00,77.6,57.5,30.06,NNW,340,0.0,6.0,50,0.00,,---,0.05,VWS V14.01,2013-07-29 16:18:00,
2013-07-29 12:21:00,77.4,58.4,30.06,NNW,343,0.0,6.0,52,0.00,,---,0.05,VWS V14.01,2013-07-29 16:21:00,
2013-07-29 12:23:00,77.4,58.4,30.06,WNW,288,0.0,6.0,52,0.00,,---,0.05,VWS V14.01,2013-07-29 16:23:00,
2013-07-29 12:25:00,77.4,58.4,30.06,WNW,282,0.0,6.0,52,0.00,,---,0.05,VWS V14.01,2013-07-29 16:25:00,
2013-07-29 12:27:00,77.4,60.0,30.06,WNW,298,0.0,6.0,55,0.00,,---,0.05,VWS V14.01,2013-07-29 16:27:00,
2013-07-29 12:29:00,77.4,57.3,30.06,WNW,298,0.0,6.0,50,0.00,,---,0.05,VWS V14.01,2013-07-29 16:29:00,
2013-07-29 12:30:00,77.2,56.6,30.06,WNW,298,0.0,6.0,49,0.00,,---,0.05,VWS V14.01,2013-07-29 16:30:00,
2013-07-29 12:31:00,77.4,56.8,30.06,North,354,0.0,0.0,49,0.00,,---,0.05,VWS V14.01,2013-07-29 16:31:00,
2013-07-29 12:33:00,77.7,58.7,30.06,NNE,18,0.0,3.0,52,0.00,,---,0.05,VWS V14.01,2013-07-29 16:33:00,
2013-07-29 12:35:00,77.9,57.2,30.06,NNW,332,0.0,5.0,49,0.00,,---,0.05,VWS V14.01,2013-07-29 16:35:00,
2013-07-29 12:37:00,77.9,57.8,30.06,NNE,26,0.0,6.0,50,0.00,,---,0.05,VWS V14.01,2013-07-29 16:37:00,
2013-07-29 12:39:00,78.1,57.4,30.06,North,10,0.0,7.0,49,0.00,,---,0.05,VWS V14.01,2013-07-29 16:39:00,
2013-07-29 12:41:00,78.1,58.0,30.06,NNE,15,0.0,7.0,50,0.00,,---,0.05,VWS V14.01,2013-07-29 16:41:00,
2013-07-29 12:43:00,78.1,56.8,30.06,North,357,0.0,7.0,48,0.00,,---,0.05,VWS V14.01,2013-07-29 16:43:00,
2013-07-29 12:45:00,78.1,58.0,30.06,West,268,0.0,7.0,50,0.00,,---,0.05,VWS V14.01,2013-07-29 16:45:00,
2013-07-29 12:47:00,78.1,57.4,30.06,WSW,245,0.0,0.0,49,0.00,,---,0.05,VWS V14.01,2013-07-29 16:47:00,
2013-07-29 12:49:00,78.1,57.4,30.06,NW,308,0.0,0.0,49,0.00,,---,0.05,VWS V14.01,2013-07-29 16:49:00,
2013-07-29 12:51:00,78.1,58.5,30.06,NW,321,0.0,1.0,51,0.00,,---,0.05,VWS V14.01,2013-07-29 16:51:00,
2013-07-29 12:53:00,77.9,56.7,30.06,NNW,346,0.0,6.0,48,0.00,,---,0.05,VWS V14.01,2013-07-29 16:53:00,
2013-07-29 12:55:00,77.9,56.1,30.06,North,349,0.0,6.0,47,0.00,,---,0.05,VWS V14.01,2013-07-29 16:55:00,
2013-07-29 12:57:00,77.9,58.9,30.06,North,349,0.0,6.0,52,0.00,,---,0.05,VWS V14.01,2013-07-29 16:57:00,
2013-07-29 12:59:00,77.9,57.8,30.06,North,349,0.0,6.0,50,0.00,,---,0.05,VWS V14.01,2013-07-29 16:59:00,
2013-07-29 13:00:00,77.9,57.8,30.06,North,349,0.0,6.0,50,0.00,,---,0.05,VWS V14.01,2013-07-29 17:00:00,
2013-07-29 13:01:00,77.9,57.2,30.06,NNW,344,0.0,6.0,49,0.00,,---,0.05,VWS V14.01,2013-07-29 17:01:00,
2013-07-29 13:03:00,78.1,58.5,30.06,NNW,344,0.0,6.0,51,0.00,,---,0.05,VWS V14.01,2013-07-29 17:03:00,
2013-07-29 13:06:00,78.1,58.5,30.06,NNW,338,0.0,6.0,51,0.00,,---,0.05,VWS V14.01,2013-07-29 17:06:00,
2013-07-29 13:08:00,78.1,58.5,30.06,NNW,328,0.0,6.0,51,0.00,,---,0.05,VWS V14.01,2013-07-29 17:08:00,
2013-07-29 13:10:00,78.1,57.4,30.06,West,266,0.0,6.0,49,0.00,,---,0.05,VWS V14.01,2013-07-29 17:10:00,
2013-07-29 13:12:00,78.1,58.5,30.06,West,266,0.0,6.0,51,0.00,,---,0.05,VWS V14.01,2013-07-29 17:12:00,
2013-07-29 13:14:00,77.9,57.2,30.06,West,271,0.0,6.0,49,0.00,,---,0.05,VWS V14.01,2013-07-29 17:14:00,
2013-07-29 13:15:00,77.9,57.2,30.06,West,271,0.0,6.0,49,0.00,,---,0.05,VWS V14.01,2013-07-29 17:15:00,
2013-07-29 13:16:00,77.9,57.2,30.06,West,271,0.0,0.0,49,0.00,,---,0.05,VWS V14.01,2013-07-29 17:16:00,
2013-07-29 13:18:00,78.5,57.8,30.06,West,270,0.0,0.0,49,0.00,,---,0.05,VWS V14.01,2013-07-29 17:18:00,
2013-07-29 13:20:00,78.5,56.6,30.06,WNW,300,0.0,0.0,47,0.00,,---,0.05,VWS V14.01,2013-07-29 17:20:00,
2013-07-29 13:22:00,78.5,58.9,30.06,NW,316,0.0,3.0,51,0.00,,---,0.05,VWS V14.01,2013-07-29 17:22:00,
2013-07-29 13:24:00,78.6,57.9,30.06,NW,316,1.0,4.0,49,0.00,,---,0.05,VWS V14.01,2013-07-29 17:24:00,
2013-07-29 13:26:00,78.6,57.9,30.06,NW,319,0.0,4.0,49,0.00,,---,0.05,VWS V14.01,2013-07-29 17:26:00,
2013-07-29 13:28:00,78.6,57.9,30.06,NW,319,0.0,4.0,49,0.00,,---,0.05,VWS V14.01,2013-07-29 17:28:00,
2013-07-29 13:30:00,78.8,59.2,30.05,NW,319,0.0,4.0,51,0.00,,---,0.05,VWS V14.01,2013-07-29 17:30:00,
2013-07-29 13:31:00,79.0,58.8,30.05,NNE,12,0.0,1.0,50,0.00,,---,0.05,VWS V14.01,2013-07-29 17:31:00,
2013-07-29 13:33:00,79.2,58.4,30.05,NNE,14,0.0,5.0,49,0.00,,---,0.05,VWS V14.01,2013-07-29 17:33:00,
2013-07-29 13:35:00,79.2,57.8,30.05,NNW,340,0.0,5.0,48,0.00,,---,0.05,VWS V14.01,2013-07-29 17:35:00,
2013-07-29 13:39:00,79.4,58.0,30.05,NW,309,5.0,5.0,48,0.00,,---,0.05,VWS V14.01,2013-07-29 17:39:00,
2013-07-29 13:41:00,79.2,57.2,30.05,NW,310,0.0,6.0,47,0.00,,---,0.05,VWS V14.01,2013-07-29 17:41:00,
2013-07-29 13:43:00,79.0,55.9,30.05,NW,316,0.0,6.0,45,0.00,,---,0.05,VWS V14.01,2013-07-29 17:43:00,
2013-07-29 13:45:00,79.0,56.5,30.05,North,0,3.0,6.0,46,0.00,,---,0.05,VWS V14.01,2013-07-29 17:45:00,
2013-07-29 13:47:00,79.2,57.8,30.05,NW,324,0.0,9.0,48,0.00,,---,0.05,VWS V14.01,2013-07-29 17:47:00,
2013-07-29 13:49:00,79.2,60.1,30.05,North,2,0.0,9.0,52,0.00,,---,0.05,VWS V14.01,2013-07-29 17:49:00,
2013-07-29 13:51:00,79.4,58.0,30.05,North,2,0.0,9.0,48,0.00,,---,0.05,VWS V14.01,2013-07-29 17:51:00,
2013-07-29 13:53:00,79.8,57.8,30.05,North,351,2.0,9.0,47,0.00,,---,0.05,VWS V14.01,2013-07-29 17:53:00,
2013-07-29 13:55:00,79.8,57.2,30.05,North,1,0.0,9.0,46,0.00,,---,0.05,VWS V14.01,2013-07-29 17:55:00,
2013-07-29 13:57:00,79.9,56.7,30.05,North,351,1.0,9.0,45,0.00,,---,0.05,VWS V14.01,2013-07-29 17:57:00,
2013-07-29 13:59:00,79.8,56.0,30.04,North,351,0.0,9.0,44,0.00,,---,0.05,VWS V14.01,2013-07-29 17:59:00,
2013-07-29 14:00:00,79.8,56.0,30.04,North,351,0.0,9.0,44,0.00,,---,0.05,VWS V14.01,2013-07-29 18:00:00,
2013-07-29 14:01:00,79.8,58.4,30.04,NNW,340,0.0,0.0,48,0.00,,---,0.05,VWS V14.01,2013-07-29 18:01:00,
2013-07-29 14:03:00,79.8,58.4,30.04,North,1,0.0,3.0,48,0.00,,---,0.05,VWS V14.01,2013-07-29 18:03:00,
2013-07-29 14:05:00,79.8,57.2,30.04,North,1,0.0,3.0,46,0.00,,---,0.05,VWS V14.01,2013-07-29 18:05:00,
2013-07-29 14:07:00,79.9,58.5,30.04,NE,40,0.0,3.0,48,0.00,,---,0.05,VWS V14.01,2013-07-29 18:07:00,
2013-07-29 14:09:00,80.1,56.9,30.04,North,349,0.0,3.0,45,0.00,,---,0.05,VWS V14.01,2013-07-29 18:09:00,
2013-07-29 14:11:00,80.3,57.7,30.04,NNW,333,1.0,4.0,46,0.00,,---,0.05,VWS V14.01,2013-07-29 18:11:00,
2013-07-29 14:13:00,80.3,58.2,30.04,NNW,332,3.0,5.0,47,0.00,,---,0.05,VWS V14.01,2013-07-29 18:13:00,
2013-07-29 14:15:00,80.3,60.0,30.04,NNW,342,4.0,4.0,50,0.00,,---,0.05,VWS V14.01,2013-07-29 18:15:00,
2013-07-29 14:18:00,80.1,56.9,30.04,NNW,340,0.0,5.0,45,0.00,,---,0.05,VWS V14.01,2013-07-29 18:18:00,
2013-07-29 14:20:00,80.1,57.5,30.04,NNW,335,1.0,5.0,46,0.00,,---,0.05,VWS V14.01,2013-07-29 18:20:00,
2013-07-29 14:22:00,80.1,58.1,30.04,NNW,335,0.0,5.0,47,0.00,,---,0.05,VWS V14.01,2013-07-29 18:22:00,
2013-07-29 14:26:00,80.5,58.4,30.04,NNW,336,0.0,5.0,47,0.00,,---,0.05,VWS V14.01,2013-07-29 18:26:00,
2013-07-29 14:28:00,80.7,57.4,30.04,NNW,333,0.0,5.0,45,0.00,,---,0.05,VWS V14.01,2013-07-29 18:28:00,
2013-07-29 14:30:00,80.7,58.0,30.04,NNW,333,0.0,7.0,46,0.00,,---,0.05,VWS V14.01,2013-07-29 18:30:00,
2013-07-29 14:32:00,80.5,56.6,30.04,NNW,334,0.0,1.0,44,0.00,,---,0.05,VWS V14.01,2013-07-29 18:32:00,
2013-07-29 14:34:00,80.5,56.6,30.04,NNW,334,0.0,1.0,44,0.00,,---,0.05,VWS V14.01,2013-07-29 18:34:00,
2013-07-29 14:36:00,80.1,57.5,30.04,NNW,333,0.0,1.0,46,0.00,,---,0.05,VWS V14.01,2013-07-29 18:36:00,
2013-07-29 14:38:00,80.3,58.8,30.04,North,3,0.0,6.0,48,0.00,,---,0.05,VWS V14.01,2013-07-29 18:38:00,
2013-07-29 14:40:00,80.3,58.8,30.04,North,1,0.0,6.0,48,0.00,,---,0.05,VWS V14.01,2013-07-29 18:40:00,
2013-07-29 14:43:00,80.7,59.2,30.04,NW,311,5.0,6.0,48,0.00,,---,0.05,VWS V14.01,2013-07-29 18:43:00,
2013-07-29 14:44:00,80.7,58.6,30.03,NNW,346,0.0,6.0,47,0.00,,---,0.05,VWS V14.01,2013-07-29 18:44:00,
2013-07-29 14:45:00,80.7,58.6,30.03,NNW,346,0.0,6.0,47,0.00,,---,0.05,VWS V14.01,2013-07-29 18:45:00,
2013-07-29 14:47:00,80.7,58.6,30.03,NNW,341,0.0,0.0,47,0.00,,---,0.05,VWS V14.01,2013-07-29 18:47:00,
2013-07-29 14:49:00,80.5,57.8,30.03,NW,326,0.0,5.0,46,0.00,,---,0.05,VWS V14.01,2013-07-29 18:49:00,
2013-07-29 14:51:00,80.7,56.8,30.03,NW,326,0.0,5.0,44,0.00,,---,0.05,VWS V14.01,2013-07-29 18:51:00,
2013-07-29 14:53:00,80.9,58.2,30.03,NW,326,0.0,5.0,46,0.00,,---,0.05,VWS V14.01,2013-07-29 18:53:00,
2013-07-29 14:55:00,81.1,58.4,30.03,NNW,340,0.0,5.0,46,0.00,,---,0.05,VWS V14.01,2013-07-29 18:55:00,
2013-07-29 14:57:00,81.1,59.0,30.03,NNW,339,0.0,5.0,47,0.00,,---,0.05,VWS V14.01,2013-07-29 18:57:00,
2013-07-29 14:59:00,81.1,57.8,30.02,NW,313,0.0,5.0,45,0.00,,---,0.05,VWS V14.01,2013-07-29 18:59:00,
2013-07-29 15:00:00,81.1,59.0,30.02,NW,321,4.0,5.0,47,0.00,,---,0.05,VWS V14.01,2013-07-29 19:00:00,
2013-07-29 15:01:00,80.9,58.2,30.02,NW,321,1.0,6.0,46,0.00,,---,0.05,VWS V14.01,2013-07-29 19:01:00,
2013-07-29 15:03:00,80.9,58.8,30.02,NW,314,0.0,6.0,47,0.00,,---,0.05,VWS V14.01,2013-07-29 19:03:00,
2013-07-29 15:05:00,80.9,60.0,30.02,NW,308,0.0,6.0,49,0.00,,---,0.05,VWS V14.01,2013-07-29 19:05:00,
2013-07-29 15:07:00,81.1,59.6,30.02,North,0,0.0,6.0,48,0.00,,---,0.05,VWS V14.01,2013-07-29 19:07:00,
2013-07-29 15:09:00,81.2,60.2,30.02,NNW,342,2.0,6.0,49,0.00,,---,0.05,VWS V14.01,2013-07-29 19:09:00,
2013-07-29 15:11:00,81.4,58.0,30.02,NW,314,0.0,6.0,45,0.00,,---,0.05,VWS V14.01,2013-07-29 19:11:00,
2013-07-29 15:13:00,81.4,58.7,30.02,NNW,330,0.0,6.0,46,0.00,,---,0.05,VWS V14.01,2013-07-29 19:13:00,
2013-07-29 15:15:00,81.4,59.3,30.02,NW,323,0.0,0.0,47,0.00,,---,0.05,VWS V14.01,2013-07-29 19:15:00,
2013-07-29 15:19:00,81.2,57.9,30.02,NW,322,2.0,9.0,45,0.00,,---,0.05,VWS V14.01,2013-07-29 19:19:00,
2013-07-29 15:21:00,81.1,57.8,30.02,NW,322,0.0,9.0,45,0.00,,---,0.05,VWS V14.01,2013-07-29 19:21:00,
2013-07-29 15:23:00,80.9,58.2,30.02,NW,322,0.0,9.0,46,0.00,,---,0.05,VWS V14.01,2013-07-29 19:23:00,
2013-07-29 15:25:00,80.9,57.6,30.02,North,351,0.0,9.0,45,0.00,,---,0.05,VWS V14.01,2013-07-29 19:25:00,
2013-07-29 15:27:00,80.9,57.6,30.02,NNW,332,0.0,9.0,45,0.00,,---,0.05,VWS V14.01,2013-07-29 19:27:00,
2013-07-29 15:29:00,80.7,58.0,30.02,NNW,332,0.0,9.0,46,0.00,,---,0.05,VWS V14.01,2013-07-29 19:29:00,
2013-07-29 15:30:00,80.7,58.0,30.02,NNW,332,0.0,9.0,46,0.00,,---,0.05,VWS V14.01,2013-07-29 19:30:00,
2013-07-29 15:31:00,80.9,57.6,30.02,NNW,332,0.0,0.0,45,0.00,,---,0.05,VWS V14.01,2013-07-29 19:31:00,
2013-07-29 15:33:00,80.9,58.8,30.02,NNW,332,0.0,0.0,47,0.00,,---,0.05,VWS V14.01,2013-07-29 19:33:00,
2013-07-29 15:35:00,81.2,58.5,30.02,North,2,0.0,2.0,46,0.00,,---,0.05,VWS V14.01,2013-07-29 19:35:00,
2013-07-29 15:37:00,81.4,58.7,30.02,North,2,0.0,2.0,46,0.00,,---,0.05,VWS V14.01,2013-07-29 19:37:00,
2013-07-29 15:39:00,81.4,57.4,30.02,WNW,300,0.0,2.0,44,0.00,,---,0.05,VWS V14.01,2013-07-29 19:39:00,
2013-07-29 15:41:00,81.4,58.7,30.02,NW,319,0.0,2.0,46,0.00,,---,0.05,VWS V14.01,2013-07-29 19:41:00,
2013-07-29 15:43:00,81.4,59.3,30.02,NNW,342,0.0,2.0,47,0.00,,---,0.05,VWS V14.01,2013-07-29 19:43:00,
2013-07-29 15:45:00,81.6,58.2,30.02,NNW,342,0.0,2.0,45,0.00,,---,0.05,VWS V14.01,2013-07-29 19:45:00,
2013-07-29 15:47:00,81.6,58.2,30.02,NW,309,4.0,9.0,45,0.00,,---,0.05,VWS V14.01,2013-07-29 19:47:00,
2013-07-29 15:50:00,81.4,58.7,30.02,NNW,339,4.0,9.0,46,0.00,,---,0.05,VWS V14.01,2013-07-29 19:50:00,
2013-07-29 15:51:00,81.2,59.1,30.02,North,357,4.0,10.0,47,0.00,,---,0.05,VWS V14.01,2013-07-29 19:51:00,
2013-07-29 15:53:00,81.1,58.4,30.02,NNW,339,5.0,10.0,46,0.00,,---,0.05,VWS V14.01,2013-07-29 19:53:00,
2013-07-29 15:55:00,80.9,58.2,30.02,North,357,4.0,10.0,46,0.00,,---,0.05,VWS V14.01,2013-07-29 19:55:00,
2013-07-29 15:58:00,80.9,58.2,30.02,NW,324,0.0,10.0,46,0.00,,---,0.05,VWS V14.01,2013-07-29 19:58:00,
2013-07-29 15:59:00,80.9,58.2,30.02,NW,325,0.0,10.0,46,0.00,,---,0.05,VWS V14.01,2013-07-29 19:59:00,
2013-07-29 16:00:00,80.9,58.2,30.02,NW,325,0.0,10.0,46,0.00,,---,0.05,VWS V14.01,2013-07-29 20:00:00,
2013-07-29 16:02:00,80.9,58.2,30.02,NW,325,0.0,0.0,46,0.00,,---,0.05,VWS V14.01,2013-07-29 20:02:00,
2013-07-29 16:03:00,80.9,58.8,30.02,NNW,332,4.0,5.0,47,0.00,,---,0.05,VWS V14.01,2013-07-29 20:03:00,
2013-07-29 16:06:00,80.9,57.6,30.02,NNW,331,0.0,5.0,45,0.00,,---,0.05,VWS V14.01,2013-07-29 20:06:00,
2013-07-29 16:08:00,81.1,58.4,30.02,NNW,331,0.0,5.0,46,0.00,,---,0.05,VWS V14.01,2013-07-29 20:08:00,
2013-07-29 16:10:00,81.1,59.0,30.02,West,273,0.0,5.0,47,0.00,,---,0.05,VWS V14.01,2013-07-29 20:10:00,
2013-07-29 16:12:00,81.1,59.6,30.02,WSW,250,0.0,5.0,48,0.00,,---,0.05,VWS V14.01,2013-07-29 20:12:00,
2013-07-29 16:14:00,81.1,59.0,30.02,WSW,250,0.0,5.0,47,0.00,,---,0.05,VWS V14.01,2013-07-29 20:14:00,
2013-07-29 16:15:00,81.2,61.4,30.01,WSW,250,0.0,5.0,51,0.00,,---,0.05,VWS V14.01,2013-07-29 20:15:00,
2013-07-29 16:16:00,81.2,59.1,30.01,WSW,250,0.0,0.0,47,0.00,,---,0.05,VWS V14.01,2013-07-29 20:16:00,
2013-07-29 16:18:00,81.8,61.4,30.01,WSW,250,0.0,0.0,50,0.00,,---,0.05,VWS V14.01,2013-07-29 20:18:00,
2013-07-29 16:20:00,82.2,58.8,30.01,NW,320,2.0,5.0,45,0.00,,---,0.05,VWS V14.01,2013-07-29 20:20:00,
2013-07-29 16:22:00,82.2,57.5,30.01,NW,320,0.0,5.0,43,0.00,,---,0.05,VWS V14.01,2013-07-29 20:22:00,
2013-07-29 16:24:00,82.0,58.0,30.01,NW,320,0.0,5.0,44,0.00,,---,0.05,VWS V14.01,2013-07-29 20:24:00,
2013-07-29 16:26:00,81.8,59.0,30.01,NW,320,0.0,5.0,46,0.00,,---,0.05,VWS V14.01,2013-07-29 20:26:00,
2013-07-29 16:30:00,81.4,59.8,30.01,NW,320,0.0,5.0,48,0.00,,---,0.05,VWS V14.01,2013-07-29 20:30:00,
2013-07-29 16:32:00,81.1,60.2,30.01,NW,320,0.0,0.0,49,0.00,,---,0.05,VWS V14.01,2013-07-29 20:32:00,
2013-07-29 16:34:00,80.7,59.2,30.01,NW,320,0.0,0.0,48,0.00,,---,0.05,VWS V14.01,2013-07-29 20:34:00,
2013-07-29 16:36:00,80.3,58.2,30.01,NW,320,0.0,0.0,47,0.00,,---,0.05,VWS V14.01,2013-07-29 20:36:00,
2013-07-29 16:38:00,80.3,57.7,30.01,NW,320,0.0,0.0,46,0.00,,---,0.05,VWS V14.01,2013-07-29 20:38:00,
2013-07-29 16:40:00,80.5,60.2,30.01,NW,320,0.0,0.0,50,0.00,,---,0.05,VWS V14.01,2013-07-29 20:40:00,
2013-07-29 16:42:00,80.7,62.5,30.01,NW,320,0.0,0.0,54,0.00,,---,0.05,VWS V14.01,2013-07-29 20:42:00,
2013-07-29 16:45:00,81.1,59.6,30.01,NW,320,0.0,0.0,48,0.00,,---,0.05,VWS V14.01,2013-07-29 20:45:00,
2013-07-29 16:47:00,81.6,58.8,30.01,NW,320,0.0,0.0,46,0.00,,---,0.05,VWS V14.01,2013-07-29 20:47:00,
2013-07-29 16:49:00,82.0,59.8,30.01,NW,320,0.0,0.0,47,0.00,,---,0.05,VWS V14.01,2013-07-29 20:49:00,
2013-07-29 16:51:00,82.6,60.9,30.01,NW,320,0.0,0.0,48,0.00,,---,0.05,VWS V14.01,2013-07-29 20:51:00,
2013-07-29 16:53:00,83.0,58.9,30.01,NW,320,0.0,0.0,44,0.00,,---,0.05,VWS V14.01,2013-07-29 20:53:00,
2013-07-29 16:55:00,83.4,61.1,30.01,NW,320,0.0,0.0,47,0.00,,---,0.05,VWS V14.01,2013-07-29 20:55:00,
2013-07-29 16:57:00,83.8,60.8,30.01,NW,320,0.0,0.0,46,0.00,,---,0.05,VWS V14.01,2013-07-29 20:57:00,
2013-07-29 16:59:00,84.1,60.5,30.02,NW,320,0.0,0.0,45,0.00,,---,0.05,VWS V14.01,2013-07-29 20:59:00,
2013-07-29 17:00:00,84.1,60.5,30.02,NW,320,0.0,0.0,45,0.00,,---,0.05,VWS V14.01,2013-07-29 21:00:00,
2013-07-29 17:01:00,84.1,59.2,30.02,NW,320,0.0,0.0,43,0.00,,---,0.05,VWS V14.01,2013-07-29 21:01:00,
2013-07-29 17:03:00,84.0,59.8,30.02,WNW,295,0.0,0.0,44,0.00,,---,0.05,VWS V14.01,2013-07-29 21:03:00,
2013-07-29 17:05:00,83.8,60.8,30.02,WNW,295,0.0,0.0,46,0.00,,---,0.05,VWS V14.01,2013-07-29 21:05:00,
2013-07-29 17:07:00,83.8,60.2,30.02,WNW,295,0.0,0.0,45,0.00,,---,0.05,VWS V14.01,2013-07-29 21:07:00,
2013-07-29 17:10:00,83.8,60.2,30.02,WNW,295,0.0,0.0,45,0.00,,---,0.05,VWS V14.01,2013-07-29 21:10:00,
2013-07-29 17:12:00,84.0,60.4,30.02,WNW,295,0.0,0.0,45,0.00,,---,0.05,VWS V14.01,2013-07-29 21:12:00,
2013-07-29 17:14:00,84.1,61.7,30.02,WNW,295,0.0,0.0,47,0.00,,---,0.05,VWS V14.01,2013-07-29 21:14:00,
2013-07-29 17:15:00,84.1,61.1,30.02,WNW,295,0.0,0.0,46,0.00,,---,0.05,VWS V14.01,2013-07-29 21:15:00,
2013-07-29 17:16:00,84.1,62.3,30.02,WNW,295,0.0,0.0,48,0.00,,---,0.05,VWS V14.01,2013-07-29 21:16:00,
2013-07-29 17:18:00,84.3,61.3,30.02,WNW,295,0.0,0.0,46,0.00,,---,0.05,VWS V14.01,2013-07-29 21:18:00,
2013-07-29 17:20:00,84.3,60.0,30.02,WNW,295,0.0,0.0,44,0.00,,---,0.05,VWS V14.01,2013-07-29 21:20:00,
2013-07-29 17:24:00,84.5,61.5,30.02,WNW,295,0.0,1.0,46,0.00,,---,0.05,VWS V14.01,2013-07-29 21:24:00,
2013-07-29 17:26:00,84.5,60.2,30.02,NNW,330,0.0,1.0,44,0.00,,---,0.05,VWS V14.01,2013-07-29 21:26:00,
2013-07-29 17:28:00,84.3,58.7,30.02,North,0,0.0,1.0,42,0.00,,---,0.05,VWS V14.01,2013-07-29 21:28:00,
2013-07-29 17:30:00,84.3,60.7,30.03,North,0,0.0,1.0,45,0.00,,---,0.05,VWS V14.01,2013-07-29 21:30:00,
2013-07-29 17:32:00,83.8,58.9,30.03,North,0,0.0,0.0,43,0.00,,---,0.05,VWS V14.01,2013-07-29 21:32:00,
2013-07-29 17:34:00,83.4,60.5,30.03,North,0,0.0,1.0,46,0.00,,---,0.05,VWS V14.01,2013-07-29 21:34:00,
2013-07-29 17:36:00,83.2,59.0,30.03,North,0,0.0,1.0,44,0.00,,---,0.05,VWS V14.01,2013-07-29 21:36:00,
2013-07-29 17:39:00,83.2,59.7,30.03,North,0,0.0,1.0,45,0.00,,---,0.05,VWS V14.01,2013-07-29 21:39:00,
2013-07-29 17:41:00,83.2,60.3,30.03,North,0,0.0,1.0,46,0.00,,---,0.05,VWS V14.01,2013-07-29 21:41:00,
2013-07-29 17:43:00,83.0,58.2,30.03,North,0,0.0,1.0,43,0.00,,---,0.05,VWS V14.01,2013-07-29 21:43:00,
2013-07-29 17:45:00,83.0,58.9,30.03,North,0,0.0,1.0,44,0.00,,---,0.05,VWS V14.01,2013-07-29 21:45:00,
2013-07-29 17:47:00,82.8,59.3,30.03,North,0,0.0,0.0,45,0.00,,---,0.05,VWS V14.01,2013-07-29 21:47:00,
2013-07-29 17:49:00,82.8,61.1,30.03,North,0,0.0,0.0,48,0.00,,---,0.05,VWS V14.01,2013-07-29 21:49:00,
2013-07-29 17:51:00,82.6,58.5,30.03,North,0,0.0,0.0,44,0.00,,---,0.05,VWS V14.01,2013-07-29 21:51:00,
2013-07-29 17:53:00,82.4,57.7,30.03,North,0,0.0,0.0,43,0.00,,---,0.05,VWS V14.01,2013-07-29 21:53:00,
2013-07-29 17:55:00,82.2,57.5,30.03,North,0,0.0,0.0,43,0.00,,---,0.05,VWS V14.01,2013-07-29 21:55:00,
2013-07-29 17:57:00,82.0,58.6,30.03,North,0,0.0,0.0,45,0.00,,---,0.05,VWS V14.01,2013-07-29 21:57:00,
2013-07-29 17:59:00,81.8,57.8,30.04,North,0,0.0,0.0,44,0.00,,---,0.05,VWS V14.01,2013-07-29 21:59:00,
2013-07-29 18:00:00,81.8,59.6,30.04,North,0,0.0,0.0,47,0.00,,---,0.05,VWS V14.01,2013-07-29 22:00:00,
2013-07-29 18:01:00,81.6,59.4,30.04,North,0,0.0,0.0,47,0.00,,---,0.05,VWS V14.01,2013-07-29 22:01:00,
2013-07-29 18:03:00,81.6,61.2,30.04,North,0,0.0,0.0,50,0.00,,---,0.05,VWS V14.01,2013-07-29 22:03:00,
2013-07-29 18:05:00,81.6,63.4,30.04,North,0,0.0,0.0,54,0.00,,---,0.05,VWS V14.01,2013-07-29 22:05:00,
2013-07-29 18:07:00,81.4,61.0,30.04,North,0,0.0,0.0,50,0.00,,---,0.05,VWS V14.01,2013-07-29 22:07:00,
2013-07-29 18:09:00,81.4,61.0,30.04,North,0,0.0,0.0,50,0.00,,---,0.05,VWS V14.01,2013-07-29 22:09:00,
2013-07-29 18:11:00,81.2,60.8,30.04,North,0,1.0,1.0,50,0.00,,---,0.05,VWS V14.01,2013-07-29 22:11:00,
2013-07-29 18:13:00,81.1,59.6,30.04,North,0,0.0,1.0,48,0.00,,---,0.05,VWS V14.01,2013-07-29 22:13:00,
2013-07-29 18:15:00,81.1,59.6,30.04,North,0,0.0,0.0,48,0.00,,---,0.05,VWS V14.01,2013-07-29 22:15:00,
2013-07-29 18:17:00,80.9,58.2,30.04,North,0,0.0,0.0,46,0.00,,---,0.05,VWS V14.01,2013-07-29 22:17:00,
2013-07-29 18:22:00,80.9,60.0,30.04,North,0,0.0,0.0,49,0.00,,---,0.05,VWS V14.01,2013-07-29 22:22:00,
2013-07-29 18:24:00,81.1,60.7,30.04,North,0,0.0,0.0,50,0.00,,---,0.05,VWS V14.01,2013-07-29 22:24:00,
2013-07-29 18:26:00,81.1,60.2,30.04,North,0,0.0,0.0,49,0.00,,---,0.05,VWS V14.01,2013-07-29 22:26:00,
2013-07-29 18:28:00,81.1,61.3,30.04,North,0,0.0,0.0,51,0.00,,---,0.05,VWS V14.01,2013-07-29 22:28:00,
2013-07-29 18:30:00,81.2,61.4,30.04,North,0,0.0,0.0,51,0.00,,---,0.05,VWS V14.01,2013-07-29 22:30:00,
2013-07-29 18:32:00,81.2,61.4,30.04,North,0,0.0,0.0,51,0.00,,---,0.05,VWS V14.01,2013-07-29 22:32:00,
2013-07-29 18:36:00,81.2,59.7,30.04,North,0,0.0,0.0,48,0.00,,---,0.05,VWS V14.01,2013-07-29 22:36:00,
2013-07-29 18:38:00,81.2,59.7,30.04,North,0,0.0,0.0,48,0.00,,---,0.05,VWS V14.01,2013-07-29 22:38:00,
2013-07-29 18:40:00,81.2,60.8,30.04,North,0,0.0,0.0,50,0.00,,---,0.05,VWS V14.01,2013-07-29 22:40:00,
2013-07-29 18:42:00,81.2,60.2,30.04,North,0,0.0,0.0,49,0.00,,---,0.05,VWS V14.01,2013-07-29 22:42:00,
2013-07-29 18:44:00,81.1,61.3,30.04,North,0,0.0,0.0,51,0.00,,---,0.05,VWS V14.01,2013-07-29 22:44:00,
2013-07-29 18:45:00,81.1,61.3,30.04,North,0,0.0,0.0,51,0.00,,---,0.05,VWS V14.01,2013-07-29 22:45:00,
2013-07-29 18:46:00,81.1,59.0,30.04,North,0,0.0,0.0,47,0.00,,---,0.05,VWS V14.01,2013-07-29 22:46:00,
2013-07-29 18:48:00,81.1,60.7,30.04,North,0,0.0,0.0,50,0.00,,---,0.05,VWS V14.01,2013-07-29 22:48:00,
2013-07-29 18:50:00,80.9,60.5,30.04,North,0,0.0,0.0,50,0.00,,---,0.05,VWS V14.01,2013-07-29 22:50:00,
2013-07-29 18:52:00,80.9,61.1,30.04,North,0,0.0,0.0,51,0.00,,---,0.05,VWS V14.01,2013-07-29 22:52:00,
2013-07-29 18:54:00,80.9,60.5,30.04,North,0,0.0,0.0,50,0.00,,---,0.05,VWS V14.01,2013-07-29 22:54:00,
2013-07-29 18:56:00,80.7,60.3,30.04,North,0,0.0,0.0,50,0.00,,---,0.05,VWS V14.01,2013-07-29 22:56:00,
2013-07-29 19:00:00,80.5,59.6,30.04,North,0,0.0,0.0,49,0.00,,---,0.05,VWS V14.01,2013-07-29 23:00:00,
2013-07-29 19:01:00,80.5,59.6,30.04,North,0,0.0,0.0,49,0.00,,---,0.05,VWS V14.01,2013-07-29 23:01:00,
2013-07-29 19:03:00,80.3,60.5,30.04,North,0,0.0,0.0,51,0.00,,---,0.05,VWS V14.01,2013-07-29 23:03:00,
2013-07-29 19:05:00,80.3,61.1,30.04,North,0,0.0,0.0,52,0.00,,---,0.05,VWS V14.01,2013-07-29 23:05:00,
2013-07-29 19:07:00,80.1,60.9,30.04,North,0,0.0,0.0,52,0.00,,---,0.05,VWS V14.01,2013-07-29 23:07:00,
2013-07-29 19:09:00,79.9,61.3,30.04,North,0,0.0,0.0,53,0.00,,---,0.05,VWS V14.01,2013-07-29 23:09:00,
2013-07-29 19:11:00,79.8,62.7,30.04,North,0,0.0,0.0,56,0.00,,---,0.05,VWS V14.01,2013-07-29 23:11:00,
2013-07-29 19:13:00,79.4,62.9,30.04,North,0,0.0,0.0,57,0.00,,---,0.05,VWS V14.01,2013-07-29 23:13:00,
2013-07-29 19:15:00,79.2,62.7,30.05,North,0,0.0,0.0,57,0.00,,---,0.05,VWS V14.01,2013-07-29 23:15:00,
2013-07-29 19:17:00,78.8,62.3,30.05,North,0,0.0,0.0,57,0.00,,---,0.05,VWS V14.01,2013-07-29 23:17:00,
2013-07-29 19:19:00,78.3,61.3,30.05,North,0,0.0,0.0,56,0.00,,---,0.05,VWS V14.01,2013-07-29 23:19:00,
2013-07-29 19:21:00,78.1,62.6,30.05,North,0,0.0,0.0,59,0.00,,---,0.05,VWS V14.01,2013-07-29 23:21:00,
2013-07-29 19:23:00,77.7,62.2,30.05,North,0,0.0,0.0,59,0.00,,---,0.05,VWS V14.01,2013-07-29 23:23:00,
2013-07-29 19:25:00,77.6,62.2,30.05,North,0,0.0,0.0,59,0.00,,---,0.05,VWS V14.01,2013-07-29 23:25:00,
2013-07-29 19:27:00,77.4,62.4,30.05,North,0,0.0,0.0,60,0.00,,---,0.05,VWS V14.01,2013-07-29 23:27:00,
2013-07-29 19:29:00,77.2,62.2,30.06,North,0,0.0,0.0,60,0.00,,---,0.05,VWS V14.01,2013-07-29 23:29:00,
2013-07-29 19:30:00,77.0,62.1,30.06,North,0,0.0,0.0,60,0.00,,---,0.05,VWS V14.01,2013-07-29 23:30:00,
2013-07-29 19:31:00,77.0,62.1,30.06,North,0,0.0,0.0,60,0.00,,---,0.05,VWS V14.01,2013-07-29 23:31:00,
2013-07-29 19:33:00,76.8,62.3,30.06,North,0,0.0,0.0,61,0.00,,---,0.05,VWS V14.01,2013-07-29 23:33:00,
2013-07-29 19:35:00,76.7,62.2,30.06,North,0,0.0,0.0,61,0.00,,---,0.05,VWS V14.01,2013-07-29 23:35:00,
2013-07-29 19:37:00,76.5,62.5,30.06,North,0,0.0,0.0,62,0.00,,---,0.05,VWS V14.01,2013-07-29 23:37:00,
2013-07-29 19:39:00,76.3,62.3,30.06,North,0,0.0,0.0,62,0.00,,---,0.05,VWS V14.01,2013-07-29 23:39:00,
2013-07-29 19:41:00,76.3,62.8,30.06,North,0,0.0,0.0,63,0.00,,---,0.05,VWS V14.01,2013-07-29 23:41:00,
2013-07-29 19:43:00,76.1,62.2,30.06,North,0,0.0,0.0,62,0.00,,---,0.05,VWS V14.01,2013-07-29 23:43:00,
2013-07-29 19:45:00,76.0,62.0,30.06,North,0,0.0,0.0,62,0.00,,---,0.05,VWS V14.01,2013-07-29 23:45:00,
2013-07-29 19:47:00,75.8,61.9,30.06,North,0,0.0,0.0,62,0.00,,---,0.05,VWS V14.01,2013-07-29 23:47:00,
2013-07-29 19:49:00,75.6,62.1,30.06,North,0,0.0,0.0,63,0.00,,---,0.05,VWS V14.01,2013-07-29 23:49:00,
2013-07-29 19:51:00,75.4,61.9,30.06,North,0,0.0,0.0,63,0.00,,---,0.05,VWS V14.01,2013-07-29 23:51:00,
2013-07-29 19:54:00,75.3,61.8,30.06,North,0,0.0,0.0,63,0.00,,---,0.05,VWS V14.01,2013-07-29 23:54:00,
2013-07-29 19:56:00,75.1,62.5,30.06,North,0,0.0,0.0,65,0.00,,---,0.05,VWS V14.01,2013-07-29 23:56:00,
2013-07-29 19:58:00,75.1,62.5,30.06,North,0,0.0,0.0,65,0.00,,---,0.05,VWS V14.01,2013-07-29 23:58:00,
2013-07-29 20:00:00,74.9,62.3,30.07,North,0,0.0,0.0,65,0.00,,---,0.05,VWS V14.01,2013-07-30 00:00:00,
2013-07-29 20:02:00,74.7,62.6,30.07,North,0,0.0,0.0,66,0.00,,---,0.05,VWS V14.01,2013-07-30 00:02:00,
2013-07-29 20:04:00,74.6,62.9,30.07,North,0,0.0,0.0,67,0.00,,---,0.05,VWS V14.01,2013-07-30 00:04:00,
2013-07-29 20:06:00,74.4,63.2,30.07,North,0,0.0,0.0,68,0.00,,---,0.05,VWS V14.01,2013-07-30 00:06:00,
2013-07-29 20:08:00,74.2,62.5,30.07,North,0,0.0,0.0,67,0.00,,---,0.05,VWS V14.01,2013-07-30 00:08:00,
2013-07-29 20:10:00,74.0,62.8,30.07,North,0,0.0,0.0,68,0.00,,---,0.05,VWS V14.01,2013-07-30 00:10:00,
2013-07-29 20:12:00,73.9,62.3,30.07,North,0,0.0,0.0,67,0.00,,---,0.05,VWS V14.01,2013-07-30 00:12:00,
2013-07-29 20:14:00,73.9,62.3,30.07,North,0,0.0,0.0,67,0.00,,---,0.05,VWS V14.01,2013-07-30 00:14:00,
2013-07-29 20:15:00,73.9,62.3,30.07,North,0,0.0,0.0,67,0.00,,---,0.05,VWS V14.01,2013-07-30 00:15:00,
2013-07-29 20:16:00,73.7,62.1,30.07,North,0,0.0,0.0,67,0.00,,---,0.05,VWS V14.01,2013-07-30 00:16:00,
2013-07-29 20:18:00,73.5,62.7,30.07,North,0,0.0,0.0,69,0.00,,---,0.05,VWS V14.01,2013-07-30 00:18:00,
2013-07-29 20:20:00,73.5,63.1,30.07,North,0,0.0,0.0,70,0.00,,---,0.05,VWS V14.01,2013-07-30 00:20:00,
2013-07-29 20:22:00,73.3,63.7,30.07,North,0,0.0,0.0,72,0.00,,---,0.05,VWS V14.01,2013-07-30 00:22:00,
2013-07-29 20:24:00,73.2,64.0,30.07,North,0,0.0,0.0,73,0.00,,---,0.05,VWS V14.01,2013-07-30 00:24:00,
2013-07-29 20:26:00,72.8,63.7,30.07,North,0,0.0,0.0,73,0.00,,---,0.05,VWS V14.01,2013-07-30 00:26:00,
2013-07-29 20:28:00,72.7,63.5,30.07,North,0,0.0,0.0,73,0.00,,---,0.05,VWS V14.01,2013-07-30 00:28:00,
2013-07-29 20:30:00,72.7,63.9,30.08,North,0,0.0,0.0,74,0.00,,---,0.05,VWS V14.01,2013-07-30 00:30:00,
2013-07-29 20:32:00,72.3,63.6,30.08,North,0,0.0,0.0,74,0.00,,---,0.05,VWS V14.01,2013-07-30 00:32:00,
2013-07-29 20:34:00,72.1,63.4,30.08,North,0,0.0,0.0,74,0.00,,---,0.05,VWS V14.01,2013-07-30 00:34:00,
2013-07-29 20:36:00,72.0,63.7,30.08,North,0,0.0,0.0,75,0.00,,---,0.05,VWS V14.01,2013-07-30 00:36:00,
2013-07-29 20:38:00,72.0,63.3,30.08,North,0,0.0,0.0,74,0.00,,---,0.05,VWS V14.01,2013-07-30 00:38:00,
2013-07-29 20:40:00,71.8,63.5,30.08,North,0,0.0,0.0,75,0.00,,---,0.05,VWS V14.01,2013-07-30 00:40:00,
2013-07-29 20:43:00,71.6,63.3,30.08,North,0,0.0,0.0,75,0.00,,---,0.05,VWS V14.01,2013-07-30 00:43:00,
2013-07-29 20:45:00,71.6,63.3,30.09,North,0,0.0,0.0,75,0.00,,---,0.05,VWS V14.01,2013-07-30 00:45:00,
2013-07-29 20:47:00,71.5,63.2,30.09,North,0,0.0,0.0,75,0.00,,---,0.05,VWS V14.01,2013-07-30 00:47:00,
2013-07-29 20:49:00,71.3,63.0,30.09,North,0,0.0,0.0,75,0.00,,---,0.05,VWS V14.01,2013-07-30 00:49:00,
2013-07-29 20:51:00,71.3,63.0,30.09,North,0,0.0,0.0,75,0.00,,---,0.05,VWS V14.01,2013-07-30 00:51:00,
2013-07-29 20:53:00,71.1,62.8,30.09,North,0,0.0,0.0,75,0.00,,---,0.05,VWS V14.01,2013-07-30 00:53:00,
2013-07-29 20:55:00,71.1,62.8,30.09,North,0,0.0,0.0,75,0.00,,---,0.05,VWS V14.01,2013-07-30 00:55:00,
2013-07-29 20:57:00,70.9,62.6,30.09,North,0,0.0,0.0,75,0.00,,---,0.05,VWS V14.01,2013-07-30 00:57:00,
2013-07-29 20:59:00,70.9,62.6,30.09,North,0,0.0,0.0,75,0.00,,---,0.05,VWS V14.01,2013-07-30 00:59:00,
2013-07-29 21:01:00,70.9,62.6,30.09,North,0,0.0,0.0,75,0.00,,---,0.05,VWS V14.01,2013-07-30 01:01:00,
2013-07-29 21:03:00,70.9,63.0,30.09,North,0,0.0,0.0,76,0.00,,---,0.05,VWS V14.01,2013-07-30 01:03:00,
2013-07-29 21:05:00,70.8,62.9,30.09,North,0,0.0,0.0,76,0.00,,---,0.05,VWS V14.01,2013-07-30 01:05:00,
2013-07-29 21:07:00,70.8,62.9,30.09,North,0,0.0,0.0,76,0.00,,---,0.05,VWS V14.01,2013-07-30 01:07:00,
2013-07-29 21:09:00,70.8,62.9,30.09,North,0,0.0,0.0,76,0.00,,---,0.05,VWS V14.01,2013-07-30 01:09:00,
2013-07-29 21:11:00,70.6,62.3,30.09,North,0,0.0,0.0,75,0.00,,---,0.05,VWS V14.01,2013-07-30 01:11:00,
2013-07-29 21:13:00,70.6,62.7,30.09,North,0,0.0,0.0,76,0.00,,---,0.05,VWS V14.01,2013-07-30 01:13:00,
2013-07-29 21:15:00,70.4,62.5,30.10,North,0,0.0,0.0,76,0.00,,---,0.05,VWS V14.01,2013-07-30 01:15:00,
2013-07-29 21:17:00,70.3,62.8,30.10,North,0,0.0,0.0,77,0.00,,---,0.05,VWS V14.01,2013-07-30 01:17:00,
2013-07-29 21:19:00,70.3,63.5,30.10,North,0,0.0,0.0,79,0.00,,---,0.05,VWS V14.01,2013-07-30 01:19:00,
2013-07-29 21:21:00,70.1,63.7,30.10,North,0,0.0,0.0,80,0.00,,---,0.05,VWS V14.01,2013-07-30 01:21:00,
2013-07-29 21:23:00,69.9,63.5,30.10,North,0,0.0,0.0,80,0.00,,---,0.05,VWS V14.01,2013-07-30 01:23:00,
2013-07-29 21:25:00,69.8,63.4,30.10,North,0,0.0,0.0,80,0.00,,---,0.05,VWS V14.01,2013-07-30 01:25:00,
2013-07-29 21:28:00,69.6,63.5,30.10,North,0,0.0,0.0,81,0.00,,---,0.05,VWS V14.01,2013-07-30 01:28:00,
2013-07-29 21:30:00,69.4,63.3,30.10,North,0,0.0,0.0,81,0.00,,---,0.05,VWS V14.01,2013-07-30 01:30:00,
2013-07-29 21:34:00,69.1,63.7,30.10,North,0,0.0,0.0,83,0.00,,---,0.05,VWS V14.01,2013-07-30 01:34:00,
2013-07-29 21:36:00,68.9,63.5,30.10,North,0,0.0,0.0,83,0.00,,---,0.05,VWS V14.01,2013-07-30 01:36:00,
2013-07-29 21:38:00,68.8,63.4,30.10,North,0,0.0,0.0,83,0.00,,---,0.05,VWS V14.01,2013-07-30 01:38:00,
2013-07-29 21:40:00,68.6,63.6,30.10,North,0,0.0,0.0,84,0.00,,---,0.05,VWS V14.01,2013-07-30 01:40:00,
2013-07-29 21:42:00,68.4,63.7,30.10,North,0,0.0,0.0,85,0.00,,---,0.05,VWS V14.01,2013-07-30 01:42:00,
2013-07-29 21:44:00,68.3,64.0,30.11,North,0,0.0,0.0,86,0.00,,---,0.05,VWS V14.01,2013-07-30 01:44:00,
2013-07-29 21:45:00,68.1,63.8,30.11,North,0,0.0,0.0,86,0.00,,---,0.05,VWS V14.01,2013-07-30 01:45:00,
2013-07-29 21:46:00,68.1,63.8,30.11,North,0,0.0,0.0,86,0.00,,---,0.05,VWS V14.01,2013-07-30 01:46:00,
2013-07-29 21:48:00,67.9,63.6,30.11,North,0,0.0,0.0,86,0.00,,---,0.05,VWS V14.01,2013-07-30 01:48:00,
2013-07-29 21:50:00,67.9,63.9,30.11,North,0,0.0,0.0,87,0.00,,---,0.05,VWS V14.01,2013-07-30 01:50:00,
2013-07-29 21:52:00,67.8,63.8,30.11,North,0,0.0,0.0,87,0.00,,---,0.05,VWS V14.01,2013-07-30 01:52:00,
2013-07-29 21:56:00,67.6,63.6,30.11,North,0,0.0,0.0,87,0.00,,---,0.05,VWS V14.01,2013-07-30 01:56:00,
2013-07-29 21:58:00,67.6,63.6,30.11,North,0,0.0,0.0,87,0.00,,---,0.05,VWS V14.01,2013-07-30 01:58:00,
2013-07-29 22:00:00,67.4,63.4,30.11,North,0,0.0,0.0,87,0.00,,---,0.05,VWS V14.01,2013-07-30 02:00:00,
2013-07-29 22:03:00,67.3,63.3,30.11,North,0,0.0,0.0,87,0.00,,---,0.05,VWS V14.01,2013-07-30 02:03:00,
2013-07-29 22:05:00,67.3,63.6,30.11,North,0,0.0,0.0,88,0.00,,---,0.05,VWS V14.01,2013-07-30 02:05:00,
2013-07-29 22:07:00,67.1,63.4,30.11,North,0,0.0,0.0,88,0.00,,---,0.05,VWS V14.01,2013-07-30 02:07:00,
2013-07-29 22:09:00,67.1,63.4,30.11,North,0,0.0,0.0,88,0.00,,---,0.05,VWS V14.01,2013-07-30 02:09:00,
2013-07-29 22:11:00,67.1,63.4,30.11,North,0,0.0,0.0,88,0.00,,---,0.05,VWS V14.01,2013-07-30 02:11:00,
2013-07-29 22:13:00,66.9,63.6,30.11,North,0,0.0,0.0,89,0.00,,---,0.05,VWS V14.01,2013-07-30 02:13:00,
2013-07-29 22:15:00,66.9,63.6,30.12,North,0,0.0,0.0,89,0.00,,---,0.05,VWS V14.01,2013-07-30 02:15:00,
2013-07-29 22:17:00,66.8,63.5,30.12,North,0,0.0,0.0,89,0.00,,---,0.05,VWS V14.01,2013-07-30 02:17:00,
2013-07-29 22:19:00,66.8,63.5,30.12,North,0,0.0,0.0,89,0.00,,---,0.05,VWS V14.01,2013-07-30 02:19:00,
2013-07-29 22:21:00,66.8,63.1,30.12,North,0,0.0,0.0,88,0.00,,---,0.05,VWS V14.01,2013-07-30 02:21:00,
2013-07-29 22:23:00,66.6,62.9,30.12,North,0,0.0,0.0,88,0.00,,---,0.05,VWS V14.01,2013-07-30 02:23:00,
2013-07-29 22:25:00,66.6,62.9,30.12,North,0,0.0,0.0,88,0.00,,---,0.05,VWS V14.01,2013-07-30 02:25:00,
2013-07-29 22:27:00,66.6,62.9,30.12,North,0,0.0,0.0,88,0.00,,---,0.05,VWS V14.01,2013-07-30 02:27:00,
2013-07-29 22:29:00,66.6,62.9,30.12,North,0,0.0,0.0,88,0.00,,---,0.05,VWS V14.01,2013-07-30 02:29:00,
2013-07-29 22:30:00,66.6,62.9,30.12,North,0,0.0,0.0,88,0.00,,---,0.05,VWS V14.01,2013-07-30 02:30:00,
2013-07-29 22:31:00,66.6,62.9,30.12,North,0,0.0,0.0,88,0.00,,---,0.05,VWS V14.01,2013-07-30 02:31:00,
2013-07-29 22:33:00,66.6,62.9,30.12,North,0,0.0,0.0,88,0.00,,---,0.05,VWS V14.01,2013-07-30 02:33:00,
2013-07-29 22:37:00,66.6,63.3,30.12,North,0,0.0,0.0,89,0.00,,---,0.05,VWS V14.01,2013-07-30 02:37:00,
2013-07-29 22:40:00,66.6,63.3,30.12,North,0,0.0,0.0,89,0.00,,---,0.05,VWS V14.01,2013-07-30 02:40:00,
2013-07-29 22:41:00,66.6,63.3,30.12,North,0,0.0,0.0,89,0.00,,---,0.05,VWS V14.01,2013-07-30 02:41:00,
2013-07-29 22:44:00,66.4,63.1,30.12,North,0,0.0,0.0,89,0.00,,---,0.05,VWS V14.01,2013-07-30 02:44:00,
2013-07-29 22:45:00,66.4,63.1,30.12,North,0,0.0,0.0,89,0.00,,---,0.05,VWS V14.01,2013-07-30 02:45:00,
2013-07-29 22:46:00,66.4,63.4,30.12,North,0,0.0,0.0,90,0.00,,---,0.05,VWS V14.01,2013-07-30 02:46:00,
2013-07-29 22:48:00,66.4,63.4,30.12,North,0,0.0,0.0,90,0.00,,---,0.05,VWS V14.01,2013-07-30 02:48:00,
2013-07-29 22:50:00,66.4,63.4,30.12,North,0,0.0,0.0,90,0.00,,---,0.05,VWS V14.01,2013-07-30 02:50:00,
2013-07-29 22:52:00,66.4,63.4,30.12,North,0,0.0,0.0,90,0.00,,---,0.05,VWS V14.01,2013-07-30 02:52:00,
2013-07-29 22:54:00,66.3,63.3,30.12,North,0,0.0,0.0,90,0.00,,---,0.05,VWS V14.01,2013-07-30 02:54:00,
2013-07-29 22:56:00,66.3,63.6,30.12,North,0,0.0,0.0,91,0.00,,---,0.05,VWS V14.01,2013-07-30 02:56:00,
2013-07-29 22:58:00,66.3,63.3,30.12,North,0,0.0,0.0,90,0.00,,---,0.05,VWS V14.01,2013-07-30 02:58:00,
2013-07-29 23:00:00,66.1,63.4,30.12,North,0,0.0,0.0,91,0.00,,---,0.05,VWS V14.01,2013-07-30 03:00:00,
2013-07-29 23:02:00,66.1,63.4,30.12,North,0,0.0,0.0,91,0.00,,---,0.05,VWS V14.01,2013-07-30 03:02:00,
2013-07-29 23:04:00,66.1,63.4,30.12,North,0,0.0,0.0,91,0.00,,---,0.05,VWS V14.01,2013-07-30 03:04:00,
2013-07-29 23:06:00,66.0,63.3,30.12,North,0,0.0,0.0,91,0.00,,---,0.05,VWS V14.01,2013-07-30 03:06:00,
2013-07-29 23:08:00,66.0,63.3,30.12,North,0,0.0,0.0,91,0.00,,---,0.05,VWS V14.01,2013-07-30 03:08:00,
2013-07-29 23:10:00,66.0,63.0,30.12,North,0,0.0,0.0,90,0.00,,---,0.05,VWS V14.01,2013-07-30 03:10:00,
2013-07-29 23:12:00,65.8,62.8,30.12,North,0,2.0,2.0,90,0.00,,---,0.05,VWS V14.01,2013-07-30 03:12:00,
2013-07-29 23:14:00,65.8,62.5,30.12,North,0,0.0,2.0,89,0.00,,---,0.05,VWS V14.01,2013-07-30 03:14:00,
2013-07-29 23:15:00,65.8,62.5,30.12,North,0,0.0,2.0,89,0.00,,---,0.05,VWS V14.01,2013-07-30 03:15:00,
2013-07-29 23:16:00,65.8,62.5,30.12,North,0,0.0,1.0,89,0.00,,---,0.05,VWS V14.01,2013-07-30 03:16:00,
2013-07-29 23:18:00,65.8,62.5,30.12,North,0,0.0,1.0,89,0.00,,---,0.05,VWS V14.01,2013-07-30 03:18:00,
2013-07-29 23:20:00,65.8,62.5,30.12,North,0,0.0,1.0,89,0.00,,---,0.05,VWS V14.01,2013-07-30 03:20:00,
2013-07-29 23:22:00,65.8,62.2,30.12,North,0,0.0,1.0,88,0.00,,---,0.05,VWS V14.01,2013-07-30 03:22:00,
2013-07-29 23:26:00,65.8,62.5,30.12,North,0,0.0,1.0,89,0.00,,---,0.05,VWS V14.01,2013-07-30 03:26:00,
2013-07-29 23:29:00,65.8,62.5,30.12,North,0,0.0,1.0,89,0.00,,---,0.05,VWS V14.01,2013-07-30 03:29:00,
2013-07-29 23:30:00,65.8,62.5,30.12,North,0,0.0,1.0,89,0.00,,---,0.05,VWS V14.01,2013-07-30 03:30:00,
2013-07-29 23:33:00,65.6,62.0,30.12,North,0,0.0,0.0,88,0.00,,---,0.05,VWS V14.01,2013-07-30 03:33:00,
2013-07-29 23:35:00,65.6,62.0,30.12,North,0,0.0,0.0,88,0.00,,---,0.05,VWS V14.01,2013-07-30 03:35:00,
2013-07-29 23:37:00,65.6,62.0,30.12,North,0,0.0,0.0,88,0.00,,---,0.05,VWS V14.01,2013-07-30 03:37:00,
2013-07-29 23:39:00,65.6,61.6,30.12,North,0,0.0,0.0,87,0.00,,---,0.05,VWS V14.01,2013-07-30 03:39:00,
2013-07-29 23:41:00,65.6,61.6,30.12,North,0,0.0,0.0,87,0.00,,---,0.05,VWS V14.01,2013-07-30 03:41:00,
2013-07-29 23:43:00,65.6,61.6,30.12,North,0,0.0,0.0,87,0.00,,---,0.05,VWS V14.01,2013-07-30 03:43:00,
2013-07-29 23:45:00,65.6,61.6,30.12,North,0,0.0,1.0,87,0.00,,---,0.05,VWS V14.01,2013-07-30 03:45:00,
2013-07-29 23:47:00,65.6,61.6,30.12,North,0,0.0,2.0,87,0.00,,---,0.05,VWS V14.01,2013-07-30 03:47:00,
2013-07-29 23:49:00,65.6,61.6,30.12,North,0,2.0,3.0,87,0.00,,---,0.05,VWS V14.01,2013-07-30 03:49:00,
2013-07-29 23:51:00,65.6,61.3,30.12,North,0,0.0,3.0,86,0.00,,---,0.05,VWS V14.01,2013-07-30 03:51:00,
2013-07-29 23:53:00,65.6,61.3,30.12,NW,326,1.0,4.0,86,0.00,,---,0.05,VWS V14.01,2013-07-30 03:53:00,
2013-07-29 23:55:00,65.6,61.3,30.12,NNW,327,0.0,4.0,86,0.00,,---,0.05,VWS V14.01,2013-07-30 03:55:00,
2013-07-29 23:57:00,65.6,61.3,30.12,NNW,338,0.0,4.0,86,0.00,,---,0.05,VWS V14.01,2013-07-30 03:57:00,
2013-07-29 23:59:00,65.6,61.3,30.12,NNW,339,0.0,4.0,86,0.00,,---,0.05,VWS V14.01,2013-07-30 03:59:00,